PWSweather.com
Personal Weather Stations
Station Observations
DL5ARK
SonnebergDE

SonnebergDE

Lat: 50.34904861, Lon: 11.18112087

Elevation: 1214

Station Type: Selfmade

http://www.sumbarg.de

Latest ConditionsUpdated 2:44:02 PM GMT+01:01 Thursday, Nov 14, 2019
Currently Today's Max Today's Min Today's Average
Temperature 44.3°F6.8°C 47.0°F8.3°C 33.7°F0.9°C 39.4°F4.1°C
Dew Point 40.1°F4.5°C 42.3°F5.7°C 38.1°F3.4°C 40.4°F4.7°C
Winds 8.2 mph SE13.2 kmh SE 13.5 mph -21.7 kmh - - 2.3 mph 3.7 kmh
Wind Gusts 8.2 mph13.2 kmh 13.7 mph22.0 kmh - -
Humidity 67% 88% 67% 82%
Pressure 29.61 in1002.7 mb 29.67 in1004.7 mb 29.59 in1002.0 mb -
Hour Temp Dew Point Humidity Winds Wind Gusts Pressure Precip Precip Rate Daily Precip Total
02:44 PM 44.3°F6.8°C 40.1°F4.5°C 67% 8.2 mph SE13.2 kmh SE 8.2 mph13.2 kmh 29.61 in1002.7 mb 0.00 in0.0 mm 0.00 in0.0 mm 0.00 in0.0 mm
02:43 PM 44.3°F6.8°C 40.2°F4.6°C 67% 8.9 mph SE14.3 kmh SE 8.9 mph14.3 kmh 29.61 in1002.7 mb 0.00 in0.0 mm 0.00 in0.0 mm 0.00 in0.0 mm
02:41 PM 44.5°F6.9°C 40.8°F4.9°C 68% 10.0 mph SE16.1 kmh SE 10.0 mph16.1 kmh 29.61 in1002.7 mb 0.00 in0.0 mm 0.00 in0.0 mm 0.00 in0.0 mm
02:40 PM 44.5°F6.9°C 41.0°F5.0°C 69% 10.1 mph SE16.3 kmh SE 10.2 mph16.4 kmh 29.61 in1002.7 mb 0.00 in0.0 mm 0.00 in0.0 mm 0.00 in0.0 mm
02:38 PM 44.6°F7.0°C 41.5°F5.3°C 70% 7.0 mph SE11.3 kmh SE 7.0 mph11.3 kmh 29.61 in1002.7 mb 0.00 in0.0 mm 0.00 in0.0 mm 0.00 in0.0 mm
02:37 PM 44.5°F6.9°C 41.5°F5.3°C 69% 7.2 mph SE11.6 kmh SE 7.2 mph11.6 kmh 29.61 in1002.7 mb 0.00 in0.0 mm 0.00 in0.0 mm 0.00 in0.0 mm
02:35 PM 44.6°F7.0°C 41.5°F5.3°C 70% 6.4 mph SE10.3 kmh SE 6.5 mph10.5 kmh 29.61 in1002.7 mb 0.00 in0.0 mm 0.00 in0.0 mm 0.00 in0.0 mm
02:34 PM 44.6°F7.0°C 41.4°F5.2°C 69% 6.5 mph SE10.5 kmh SE 6.5 mph10.5 kmh 29.62 in1003.0 mb 0.00 in0.0 mm 0.00 in0.0 mm 0.00 in0.0 mm
02:32 PM 44.7°F7.1°C 41.1°F5.1°C 69% 7.4 mph SE11.9 kmh SE 7.7 mph12.4 kmh 29.62 in1003.0 mb 0.00 in0.0 mm 0.00 in0.0 mm 0.00 in0.0 mm
02:31 PM 44.7°F7.1°C 40.9°F4.9°C 69% 8.1 mph SE13.0 kmh SE 8.2 mph13.2 kmh 29.62 in1003.0 mb 0.00 in0.0 mm 0.00 in0.0 mm 0.00 in0.0 mm
02:29 PM 44.8°F7.1°C 41.4°F5.2°C 70% 6.3 mph SE10.1 kmh SE 6.4 mph10.3 kmh 29.62 in1003.0 mb 0.00 in0.0 mm 0.00 in0.0 mm 0.00 in0.0 mm
02:28 PM 44.8°F7.1°C 41.7°F5.4°C 70% 6.5 mph SE10.5 kmh SE 6.5 mph10.5 kmh 29.61 in1002.7 mb 0.00 in0.0 mm 0.00 in0.0 mm 0.00 in0.0 mm
02:26 PM 44.8°F7.1°C 40.8°F4.9°C 68% 9.0 mph SE14.5 kmh SE 9.0 mph14.5 kmh 29.62 in1003.0 mb 0.00 in0.0 mm 0.00 in0.0 mm 0.00 in0.0 mm
02:25 PM 44.8°F7.1°C 40.9°F4.9°C 69% 8.1 mph SE13.0 kmh SE 8.2 mph13.2 kmh 29.62 in1003.0 mb 0.00 in0.0 mm 0.00 in0.0 mm 0.00 in0.0 mm
02:20 PM 44.9°F7.2°C 41.0°F5.0°C 68% 7.1 mph SE11.4 kmh SE 7.1 mph11.4 kmh 29.63 in1003.4 mb 0.00 in0.0 mm 0.00 in0.0 mm 0.00 in0.0 mm
02:19 PM 44.9°F7.2°C 40.5°F4.7°C 68% 5.7 mph NNW9.2 kmh NNW 5.7 mph9.2 kmh 29.62 in1003.0 mb 0.00 in0.0 mm 0.00 in0.0 mm 0.00 in0.0 mm
02:17 PM 44.9°F7.2°C 41.0°F5.0°C 68% 4.5 mph SE7.2 kmh SE 4.7 mph7.6 kmh 29.63 in1003.4 mb 0.00 in0.0 mm 0.00 in0.0 mm 0.00 in0.0 mm
02:16 PM 44.9°F7.2°C 40.8°F4.9°C 68% 4.2 mph NNW6.8 kmh NNW 4.2 mph6.8 kmh 29.63 in1003.4 mb 0.00 in0.0 mm 0.00 in0.0 mm 0.00 in0.0 mm
02:14 PM 44.9°F7.2°C 40.7°F4.8°C 68% 5.9 mph SE9.5 kmh SE 6.0 mph9.7 kmh 29.63 in1003.4 mb 0.00 in0.0 mm 0.00 in0.0 mm 0.00 in0.0 mm
02:13 PM 44.8°F7.1°C 41.0°F5.0°C 69% 5.7 mph SE9.2 kmh SE 5.7 mph9.2 kmh 29.62 in1003.0 mb 0.00 in0.0 mm 0.00 in0.0 mm 0.00 in0.0 mm
02:11 PM 44.8°F7.1°C 40.4°F4.7°C 68% 8.2 mph SE13.2 kmh SE 8.3 mph13.4 kmh 29.63 in1003.4 mb 0.00 in0.0 mm 0.00 in0.0 mm 0.00 in0.0 mm
02:10 PM 44.8°F7.1°C 40.6°F4.8°C 69% 8.8 mph NNW14.2 kmh NNW 8.8 mph14.2 kmh 29.62 in1003.0 mb 0.00 in0.0 mm 0.00 in0.0 mm 0.00 in0.0 mm
02:08 PM 44.9°F7.2°C 40.8°F4.9°C 68% 8.7 mph SE14.0 kmh SE 8.8 mph14.2 kmh 29.62 in1003.0 mb 0.00 in0.0 mm 0.00 in0.0 mm 0.00 in0.0 mm
02:07 PM 44.9°F7.2°C 41.0°F5.0°C 69% 9.1 mph NNW14.6 kmh NNW 9.2 mph14.8 kmh 29.62 in1003.0 mb 0.00 in0.0 mm 0.00 in0.0 mm 0.00 in0.0 mm
02:05 PM 45.3°F7.4°C 41.6°F5.3°C 70% 6.8 mph SE10.9 kmh SE 6.8 mph10.9 kmh 29.62 in1003.0 mb 0.00 in0.0 mm 0.00 in0.0 mm 0.00 in0.0 mm
02:04 PM 45.3°F7.4°C 41.5°F5.3°C 69% 6.9 mph SE11.1 kmh SE 7.0 mph11.3 kmh 29.62 in1003.0 mb 0.00 in0.0 mm 0.00 in0.0 mm 0.00 in0.0 mm
02:02 PM 45.5°F7.5°C 41.2°F5.1°C 69% 13.0 mph SE20.9 kmh SE 13.1 mph21.1 kmh 29.62 in1003.0 mb 0.00 in0.0 mm 0.00 in0.0 mm 0.00 in0.0 mm
02:01 PM 45.6°F7.6°C 41.6°F5.3°C 70% 13.5 mph SE21.7 kmh SE 13.7 mph22.0 kmh 29.62 in1003.0 mb 0.00 in0.0 mm 0.00 in0.0 mm 0.00 in0.0 mm
01:59 PM 45.7°F7.6°C 41.8°F5.4°C 71% 8.7 mph SE14.0 kmh SE 8.8 mph14.2 kmh 29.62 in1003.0 mb 0.00 in0.0 mm 0.00 in0.0 mm 0.00 in0.0 mm
01:58 PM 45.6°F7.6°C 41.9°F5.5°C 71% 10.5 mph NNW16.9 kmh NNW 10.6 mph17.1 kmh 29.62 in1003.0 mb 0.00 in0.0 mm 0.00 in0.0 mm 0.00 in0.0 mm
01:56 PM 46.2°F7.9°C 41.5°F5.3°C 70% 8.4 mph SE13.5 kmh SE 8.5 mph13.7 kmh 29.62 in1003.0 mb 0.00 in0.0 mm 0.00 in0.0 mm 0.00 in0.0 mm
01:55 PM 46.2°F7.9°C 41.5°F5.3°C 70% 8.3 mph NNW13.4 kmh NNW 8.3 mph13.4 kmh 29.62 in1003.0 mb 0.00 in0.0 mm 0.00 in0.0 mm 0.00 in0.0 mm
01:53 PM 46.1°F7.8°C 40.7°F4.8°C 68% 7.2 mph SE11.6 kmh SE 7.2 mph11.6 kmh 29.62 in1003.0 mb 0.00 in0.0 mm 0.00 in0.0 mm 0.00 in0.0 mm
01:52 PM 46.1°F7.8°C 40.6°F4.8°C 68% 6.5 mph SE10.5 kmh SE 6.5 mph10.5 kmh 29.62 in1003.0 mb 0.00 in0.0 mm 0.00 in0.0 mm 0.00 in0.0 mm
01:50 PM 46.9°F8.3°C 41.7°F5.4°C 70% 6.2 mph SE10.0 kmh SE 6.2 mph10.0 kmh 29.63 in1003.4 mb 0.00 in0.0 mm 0.00 in0.0 mm 0.00 in0.0 mm
01:49 PM 47.0°F8.3°C 41.4°F5.2°C 70% 6.1 mph SE9.8 kmh SE 6.1 mph9.8 kmh 29.62 in1003.0 mb 0.00 in0.0 mm 0.00 in0.0 mm 0.00 in0.0 mm
01:47 PM 46.5°F8.1°C 41.4°F5.2°C 70% 7.2 mph SE11.6 kmh SE 7.3 mph11.7 kmh 29.63 in1003.4 mb 0.00 in0.0 mm 0.00 in0.0 mm 0.00 in0.0 mm
01:46 PM 46.6°F8.1°C 41.6°F5.3°C 71% 7.3 mph SE11.7 kmh SE 7.3 mph11.7 kmh 29.63 in1003.4 mb 0.00 in0.0 mm 0.00 in0.0 mm 0.00 in0.0 mm
01:44 PM 46.3°F7.9°C 42.0°F5.6°C 72% 6.4 mph SE10.3 kmh SE 6.4 mph10.3 kmh 29.63 in1003.4 mb 0.00 in0.0 mm 0.00 in0.0 mm 0.00 in0.0 mm
01:43 PM 46.2°F7.9°C 41.9°F5.5°C 72% 6.5 mph SE10.5 kmh SE 6.5 mph10.5 kmh 29.63 in1003.4 mb 0.00 in0.0 mm 0.00 in0.0 mm 0.00 in0.0 mm
01:41 PM 45.6°F7.6°C 42.3°F5.7°C 74% 5.1 mph SE8.2 kmh SE 5.4 mph8.7 kmh 29.63 in1003.4 mb 0.00 in0.0 mm 0.00 in0.0 mm 0.00 in0.0 mm
01:40 PM 45.6°F7.6°C 42.2°F5.7°C 74% 5.7 mph SE9.2 kmh SE 5.7 mph9.2 kmh 29.63 in1003.4 mb 0.00 in0.0 mm 0.00 in0.0 mm 0.00 in0.0 mm
01:38 PM 44.6°F7.0°C 40.7°F4.8°C 71% 7.0 mph SSE11.3 kmh SSE 7.1 mph11.4 kmh 29.63 in1003.4 mb 0.00 in0.0 mm 0.00 in0.0 mm 0.00 in0.0 mm
01:37 PM 44.6°F7.0°C 40.8°F4.9°C 71% 7.3 mph SE11.7 kmh SE 7.3 mph11.7 kmh 29.63 in1003.4 mb 0.00 in0.0 mm 0.00 in0.0 mm 0.00 in0.0 mm
01:35 PM 44.4°F6.9°C 40.6°F4.8°C 71% 7.5 mph SE12.1 kmh SE 7.5 mph12.1 kmh 29.64 in1003.7 mb 0.00 in0.0 mm 0.00 in0.0 mm 0.00 in0.0 mm
01:34 PM 44.4°F6.9°C 41.0°F5.0°C 72% 8.1 mph ESE13.0 kmh ESE 8.2 mph13.2 kmh 29.63 in1003.4 mb 0.00 in0.0 mm 0.00 in0.0 mm 0.00 in0.0 mm
01:32 PM 44.4°F6.9°C 41.3°F5.2°C 72% 6.5 mph SE10.5 kmh SE 6.6 mph10.6 kmh 29.63 in1003.4 mb 0.00 in0.0 mm 0.00 in0.0 mm 0.00 in0.0 mm
01:31 PM 44.4°F6.9°C 41.0°F5.0°C 72% 6.9 mph SE11.1 kmh SE 6.9 mph11.1 kmh 29.63 in1003.4 mb 0.00 in0.0 mm 0.00 in0.0 mm 0.00 in0.0 mm
01:29 PM 44.4°F6.9°C 41.4°F5.2°C 72% 7.6 mph SE12.2 kmh SE 7.6 mph12.2 kmh 29.63 in1003.4 mb 0.00 in0.0 mm 0.00 in0.0 mm 0.00 in0.0 mm
01:28 PM 44.4°F6.9°C 41.0°F5.0°C 72% 8.1 mph ESE13.0 kmh ESE 8.1 mph13.0 kmh 29.63 in1003.4 mb 0.00 in0.0 mm 0.00 in0.0 mm 0.00 in0.0 mm
01:26 PM 44.4°F6.9°C 40.5°F4.7°C 70% 5.3 mph SSE8.5 kmh SSE 5.5 mph8.9 kmh 29.63 in1003.4 mb 0.00 in0.0 mm 0.00 in0.0 mm 0.00 in0.0 mm
01:25 PM 44.3°F6.8°C 40.5°F4.7°C 71% 6.1 mph SE9.8 kmh SE 6.1 mph9.8 kmh 29.64 in1003.7 mb 0.00 in0.0 mm 0.00 in0.0 mm 0.00 in0.0 mm
01:23 PM 44.4°F6.9°C 40.9°F4.9°C 71% 6.1 mph SE9.8 kmh SE 6.1 mph9.8 kmh 29.63 in1003.4 mb 0.00 in0.0 mm 0.00 in0.0 mm 0.00 in0.0 mm
01:22 PM 44.4°F6.9°C 40.8°F4.9°C 71% 6.0 mph SSE9.7 kmh SSE 6.0 mph9.7 kmh 29.64 in1003.7 mb 0.00 in0.0 mm 0.00 in0.0 mm 0.00 in0.0 mm
01:20 PM 44.4°F6.9°C 40.8°F4.9°C 71% 7.6 mph SE12.2 kmh SE 7.7 mph12.4 kmh 29.63 in1003.4 mb 0.00 in0.0 mm 0.00 in0.0 mm 0.00 in0.0 mm
01:19 PM 44.5°F6.9°C 40.9°F4.9°C 72% 6.9 mph SSE11.1 kmh SSE 6.9 mph11.1 kmh 29.63 in1003.4 mb 0.00 in0.0 mm 0.00 in0.0 mm 0.00 in0.0 mm
01:17 PM 44.4°F6.9°C 41.2°F5.1°C 72% 5.1 mph SE8.2 kmh SE 5.2 mph8.4 kmh 29.64 in1003.7 mb 0.00 in0.0 mm 0.00 in0.0 mm 0.00 in0.0 mm
01:16 PM 44.4°F6.9°C 41.2°F5.1°C 72% 5.3 mph SE8.5 kmh SE 5.3 mph8.5 kmh 29.63 in1003.4 mb 0.00 in0.0 mm 0.00 in0.0 mm 0.00 in0.0 mm
01:14 PM 44.2°F6.8°C 40.6°F4.8°C 72% 7.0 mph SE11.3 kmh SE 7.0 mph11.3 kmh 29.63 in1003.4 mb 0.00 in0.0 mm 0.00 in0.0 mm 0.00 in0.0 mm
01:13 PM 44.2°F6.8°C 40.7°F4.8°C 72% 5.7 mph SE9.2 kmh SE 5.7 mph9.2 kmh 29.63 in1003.4 mb 0.00 in0.0 mm 0.00 in0.0 mm 0.00 in0.0 mm
01:11 PM 44.3°F6.8°C 40.9°F4.9°C 72% 7.7 mph SE12.4 kmh SE 8.0 mph12.9 kmh 29.63 in1003.4 mb 0.00 in0.0 mm 0.00 in0.0 mm 0.00 in0.0 mm
01:10 PM 44.3°F6.8°C 41.0°F5.0°C 72% 8.4 mph SE13.5 kmh SE 8.4 mph13.5 kmh 29.63 in1003.4 mb 0.00 in0.0 mm 0.00 in0.0 mm 0.00 in0.0 mm
01:08 PM 44.2°F6.8°C 40.8°F4.9°C 71% 9.8 mph SE15.8 kmh SE 9.9 mph15.9 kmh 29.63 in1003.4 mb 0.00 in0.0 mm 0.00 in0.0 mm 0.00 in0.0 mm
01:07 PM 44.2°F6.8°C 40.7°F4.8°C 72% 8.9 mph ESE14.3 kmh ESE 9.0 mph14.5 kmh 29.63 in1003.4 mb 0.00 in0.0 mm 0.00 in0.0 mm 0.00 in0.0 mm
01:05 PM 44.4°F6.9°C 41.0°F5.0°C 71% 5.1 mph SE8.2 kmh SE 5.2 mph8.4 kmh 29.63 in1003.4 mb 0.00 in0.0 mm 0.00 in0.0 mm 0.00 in0.0 mm
01:04 PM 44.3°F6.8°C 41.1°F5.1°C 71% 5.7 mph SE9.2 kmh SE 5.7 mph9.2 kmh 29.63 in1003.4 mb 0.00 in0.0 mm 0.00 in0.0 mm 0.00 in0.0 mm
01:02 PM 44.3°F6.8°C 41.1°F5.1°C 72% 8.0 mph SE12.9 kmh SE 8.0 mph12.9 kmh 29.63 in1003.4 mb 0.00 in0.0 mm 0.00 in0.0 mm 0.00 in0.0 mm
01:01 PM 44.3°F6.8°C 41.1°F5.1°C 72% 6.9 mph SE11.1 kmh SE 6.9 mph11.1 kmh 29.63 in1003.4 mb 0.00 in0.0 mm 0.00 in0.0 mm 0.00 in0.0 mm
12:59 PM 44.5°F6.9°C 41.6°F5.3°C 72% 7.2 mph SE11.6 kmh SE 7.2 mph11.6 kmh 29.63 in1003.4 mb 0.00 in0.0 mm 0.00 in0.0 mm 0.00 in0.0 mm
12:58 PM 44.4°F6.9°C 41.6°F5.3°C 72% 7.2 mph ESE11.6 kmh ESE 7.2 mph11.6 kmh 29.63 in1003.4 mb 0.00 in0.0 mm 0.00 in0.0 mm 0.00 in0.0 mm
12:56 PM 44.3°F6.8°C 40.9°F4.9°C 71% 5.1 mph SE8.2 kmh SE 5.2 mph8.4 kmh 29.64 in1003.7 mb 0.00 in0.0 mm 0.00 in0.0 mm 0.00 in0.0 mm
12:55 PM 44.3°F6.8°C 40.9°F4.9°C 71% 4.9 mph SE7.9 kmh SE 4.9 mph7.9 kmh 29.63 in1003.4 mb 0.00 in0.0 mm 0.00 in0.0 mm 0.00 in0.0 mm
12:53 PM 44.4°F6.9°C 40.8°F4.9°C 71% 7.1 mph SE11.4 kmh SE 7.2 mph11.6 kmh 29.63 in1003.4 mb 0.00 in0.0 mm 0.00 in0.0 mm 0.00 in0.0 mm
12:52 PM 44.4°F6.9°C 40.9°F4.9°C 72% 7.3 mph SE11.7 kmh SE 7.3 mph11.7 kmh 29.64 in1003.7 mb 0.00 in0.0 mm 0.00 in0.0 mm 0.00 in0.0 mm
12:50 PM 44.5°F6.9°C 40.9°F4.9°C 71% 1.8 mph SSE2.9 kmh SSE 1.9 mph3.1 kmh 29.64 in1003.7 mb 0.00 in0.0 mm 0.00 in0.0 mm 0.00 in0.0 mm
12:49 PM 44.5°F6.9°C 41.0°F5.0°C 71% 1.6 mph SSE2.6 kmh SSE 1.6 mph2.6 kmh 29.64 in1003.7 mb 0.00 in0.0 mm 0.00 in0.0 mm 0.00 in0.0 mm
12:47 PM 44.4°F6.9°C 41.2°F5.1°C 71% 4.6 mph SE7.4 kmh SE 4.6 mph7.4 kmh 29.64 in1003.7 mb 0.00 in0.0 mm 0.00 in0.0 mm 0.00 in0.0 mm
12:46 PM 44.4°F6.9°C 41.2°F5.1°C 72% 4.5 mph NNW7.2 kmh NNW 4.5 mph7.2 kmh 29.63 in1003.4 mb 0.00 in0.0 mm 0.00 in0.0 mm 0.00 in0.0 mm
12:44 PM 44.3°F6.8°C 41.4°F5.2°C 72% 3.2 mph SE5.1 kmh SE 3.3 mph5.3 kmh 29.63 in1003.4 mb 0.00 in0.0 mm 0.00 in0.0 mm 0.00 in0.0 mm
12:43 PM 44.3°F6.8°C 41.1°F5.1°C 72% 2.8 mph NNW4.5 kmh NNW 2.9 mph4.7 kmh 29.64 in1003.7 mb 0.00 in0.0 mm 0.00 in0.0 mm 0.00 in0.0 mm
12:41 PM 43.9°F6.6°C 41.2°F5.1°C 72% 3.0 mph SE4.8 kmh SE 3.0 mph4.8 kmh 29.64 in1003.7 mb 0.00 in0.0 mm 0.00 in0.0 mm 0.00 in0.0 mm
12:40 PM 43.9°F6.6°C 41.4°F5.2°C 72% 3.2 mph SE5.1 kmh SE 3.2 mph5.1 kmh 29.64 in1003.7 mb 0.00 in0.0 mm 0.00 in0.0 mm 0.00 in0.0 mm
12:38 PM 43.8°F6.6°C 41.5°F5.3°C 73% 3.9 mph SE6.3 kmh SE 3.9 mph6.3 kmh 29.64 in1003.7 mb 0.00 in0.0 mm 0.00 in0.0 mm 0.00 in0.0 mm
12:37 PM 43.8°F6.6°C 41.6°F5.3°C 73% 3.2 mph SE5.1 kmh SE 3.2 mph5.1 kmh 29.64 in1003.7 mb 0.00 in0.0 mm 0.00 in0.0 mm 0.00 in0.0 mm
12:35 PM 43.7°F6.5°C 41.5°F5.3°C 73% 5.5 mph SE8.9 kmh SE 5.5 mph8.9 kmh 29.64 in1003.7 mb 0.00 in0.0 mm 0.00 in0.0 mm 0.00 in0.0 mm
12:34 PM 43.6°F6.4°C 41.6°F5.3°C 73% 5.2 mph NNW8.4 kmh NNW 5.2 mph8.4 kmh 29.64 in1003.7 mb 0.00 in0.0 mm 0.00 in0.0 mm 0.00 in0.0 mm
12:32 PM 43.6°F6.4°C 41.2°F5.1°C 72% 4.9 mph SE7.9 kmh SE 4.9 mph7.9 kmh 29.64 in1003.7 mb 0.00 in0.0 mm 0.00 in0.0 mm 0.00 in0.0 mm
12:31 PM 43.5°F6.4°C 41.4°F5.2°C 72% 4.4 mph SE7.1 kmh SE 4.4 mph7.1 kmh 29.64 in1003.7 mb 0.00 in0.0 mm 0.00 in0.0 mm 0.00 in0.0 mm
12:29 PM 43.7°F6.5°C 41.2°F5.1°C 72% 5.3 mph SE8.5 kmh SE 5.3 mph8.5 kmh 29.64 in1003.7 mb 0.00 in0.0 mm 0.00 in0.0 mm 0.00 in0.0 mm
12:28 PM 43.7°F6.5°C 41.4°F5.2°C 72% 4.5 mph NNW7.2 kmh NNW 4.5 mph7.2 kmh 29.64 in1003.7 mb 0.00 in0.0 mm 0.00 in0.0 mm 0.00 in0.0 mm
12:26 PM 43.7°F6.5°C 41.3°F5.2°C 71% 0.7 mph NNW1.1 kmh NNW 0.7 mph1.1 kmh 29.64 in1003.7 mb 0.00 in0.0 mm 0.00 in0.0 mm 0.00 in0.0 mm
12:25 PM 43.7°F6.5°C 41.4°F5.2°C 72% Calm Calm -- 29.64 in1003.7 mb 0.00 in0.0 mm 0.00 in0.0 mm 0.00 in0.0 mm
12:23 PM 43.8°F6.6°C 40.9°F4.9°C 71% 4.1 mph SSE6.6 kmh SSE 4.3 mph6.9 kmh 29.64 in1003.7 mb 0.00 in0.0 mm 0.00 in0.0 mm 0.00 in0.0 mm
12:22 PM 43.8°F6.6°C 41.2°F5.1°C 71% 4.0 mph SSE6.4 kmh SSE 4.1 mph6.6 kmh 29.64 in1003.7 mb 0.00 in0.0 mm 0.00 in0.0 mm 0.00 in0.0 mm
12:20 PM 44.0°F6.7°C 41.3°F5.2°C 71% 1.1 mph SSE1.8 kmh SSE 1.3 mph2.1 kmh 29.64 in1003.7 mb 0.00 in0.0 mm 0.00 in0.0 mm 0.00 in0.0 mm
12:19 PM 44.0°F6.7°C 41.0°F5.0°C 71% 2.0 mph SSE3.2 kmh SSE 2.0 mph3.2 kmh 29.64 in1003.7 mb 0.00 in0.0 mm 0.00 in0.0 mm 0.00 in0.0 mm
12:17 PM 43.9°F6.6°C 41.0°F5.0°C 71% 2.7 mph SSE4.3 kmh SSE 2.7 mph4.3 kmh 29.64 in1003.7 mb 0.00 in0.0 mm 0.00 in0.0 mm 0.00 in0.0 mm
12:16 PM 43.8°F6.6°C 41.1°F5.1°C 71% 2.0 mph SSE3.2 kmh SSE 2.0 mph3.2 kmh 29.64 in1003.7 mb 0.00 in0.0 mm 0.00 in0.0 mm 0.00 in0.0 mm
12:14 PM 44.0°F6.7°C 41.4°F5.2°C 72% 0.2 mph S0.3 kmh S 0.2 mph0.3 kmh 29.64 in1003.7 mb 0.00 in0.0 mm 0.00 in0.0 mm 0.00 in0.0 mm
12:13 PM 44.0°F6.7°C 41.1°F5.1°C 72% 0.8 mph S1.3 kmh S 0.8 mph1.3 kmh 29.64 in1003.7 mb 0.00 in0.0 mm 0.00 in0.0 mm 0.00 in0.0 mm
12:11 PM 43.6°F6.4°C 40.3°F4.6°C 70% 2.6 mph SE4.2 kmh SE 2.6 mph4.2 kmh 29.64 in1003.7 mb 0.00 in0.0 mm 0.00 in0.0 mm 0.00 in0.0 mm
12:10 PM 43.6°F6.4°C 40.6°F4.8°C 71% 2.8 mph SSE4.5 kmh SSE 2.9 mph4.7 kmh 29.64 in1003.7 mb 0.00 in0.0 mm 0.00 in0.0 mm 0.00 in0.0 mm
12:08 PM 43.8°F6.6°C 40.9°F4.9°C 70% 1.6 mph SE2.6 kmh SE 1.6 mph2.6 kmh 29.64 in1003.7 mb 0.00 in0.0 mm 0.00 in0.0 mm 0.00 in0.0 mm
12:07 PM 43.8°F6.6°C 40.8°F4.9°C 70% 1.6 mph SE2.6 kmh SE 1.6 mph2.6 kmh 29.64 in1003.7 mb 0.00 in0.0 mm 0.00 in0.0 mm 0.00 in0.0 mm
12:05 PM 44.2°F6.8°C 41.5°F5.3°C 72% Calm Calm -- 29.64 in1003.7 mb 0.00 in0.0 mm 0.00 in0.0 mm 0.00 in0.0 mm
12:04 PM 44.2°F6.8°C 41.4°F5.2°C 72% Calm Calm -- 29.64 in1003.7 mb 0.00 in0.0 mm 0.00 in0.0 mm 0.00 in0.0 mm
12:02 PM 44.2°F6.8°C 41.7°F5.4°C 73% 2.1 mph S3.4 kmh S 2.1 mph3.4 kmh 29.64 in1003.7 mb 0.00 in0.0 mm 0.00 in0.0 mm 0.00 in0.0 mm
12:01 PM 44.2°F6.8°C 41.6°F5.3°C 73% 2.0 mph S3.2 kmh S 2.0 mph3.2 kmh 29.64 in1003.7 mb 0.00 in0.0 mm 0.00 in0.0 mm 0.00 in0.0 mm
11:59 AM 44.5°F6.9°C 41.9°F5.5°C 74% 3.2 mph S5.1 kmh S 3.2 mph5.1 kmh 29.64 in1003.7 mb 0.00 in0.0 mm 0.00 in0.0 mm 0.00 in0.0 mm
11:58 AM 44.5°F6.9°C 41.8°F5.4°C 74% 3.6 mph S5.8 kmh S 3.6 mph5.8 kmh 29.64 in1003.7 mb 0.00 in0.0 mm 0.00 in0.0 mm 0.00 in0.0 mm
11:56 AM 44.4°F6.9°C 41.5°F5.3°C 74% 2.0 mph SSE3.2 kmh SSE 2.1 mph3.4 kmh 29.64 in1003.7 mb 0.00 in0.0 mm 0.00 in0.0 mm 0.00 in0.0 mm
11:55 AM 44.4°F6.9°C 41.4°F5.2°C 73% 3.2 mph SE5.1 kmh SE 3.3 mph5.3 kmh 29.64 in1003.7 mb 0.00 in0.0 mm 0.00 in0.0 mm 0.00 in0.0 mm
11:53 AM 44.4°F6.9°C 41.6°F5.3°C 75% 4.4 mph SE7.1 kmh SE 4.6 mph7.4 kmh 29.64 in1003.7 mb 0.00 in0.0 mm 0.00 in0.0 mm 0.00 in0.0 mm
11:52 AM 44.4°F6.9°C 41.4°F5.2°C 74% 5.7 mph SE9.2 kmh SE 5.7 mph9.2 kmh 29.64 in1003.7 mb 0.00 in0.0 mm 0.00 in0.0 mm 0.00 in0.0 mm
11:50 AM 44.2°F6.8°C 41.0°F5.0°C 73% 5.2 mph SE8.4 kmh SE 5.3 mph8.5 kmh 29.64 in1003.7 mb 0.00 in0.0 mm 0.00 in0.0 mm 0.00 in0.0 mm
11:49 AM 44.2°F6.8°C 41.1°F5.1°C 74% 4.9 mph NNW7.9 kmh NNW 4.9 mph7.9 kmh 29.64 in1003.7 mb 0.00 in0.0 mm 0.00 in0.0 mm 0.00 in0.0 mm
11:47 AM 44.2°F6.8°C 41.3°F5.2°C 74% 3.7 mph SE6.0 kmh SE 3.7 mph6.0 kmh 29.64 in1003.7 mb 0.00 in0.0 mm 0.00 in0.0 mm 0.00 in0.0 mm
11:46 AM 44.0°F6.7°C 41.4°F5.2°C 75% 3.2 mph SE5.1 kmh SE 3.2 mph5.1 kmh 29.64 in1003.7 mb 0.00 in0.0 mm 0.00 in0.0 mm 0.00 in0.0 mm
11:44 AM 44.0°F6.7°C 41.6°F5.3°C 76% 5.3 mph SE8.5 kmh SE 5.4 mph8.7 kmh 29.64 in1003.7 mb 0.00 in0.0 mm 0.00 in0.0 mm 0.00 in0.0 mm
11:43 AM 44.0°F6.7°C 41.6°F5.3°C 76% 5.7 mph SE9.2 kmh SE 5.7 mph9.2 kmh 29.64 in1003.7 mb 0.00 in0.0 mm 0.00 in0.0 mm 0.00 in0.0 mm
11:41 AM 43.8°F6.6°C 41.6°F5.3°C 76% Calm Calm -- 29.64 in1003.7 mb 0.00 in0.0 mm 0.00 in0.0 mm 0.00 in0.0 mm
11:40 AM 43.8°F6.6°C 41.4°F5.2°C 76% Calm Calm -- 29.64 in1003.7 mb 0.00 in0.0 mm 0.00 in0.0 mm 0.00 in0.0 mm
11:38 AM 43.6°F6.4°C 41.2°F5.1°C 76% 1.8 mph SSE2.9 kmh SSE 1.8 mph2.9 kmh 29.64 in1003.7 mb 0.00 in0.0 mm 0.00 in0.0 mm 0.00 in0.0 mm
11:37 AM 43.6°F6.4°C 41.1°F5.1°C 76% 1.6 mph SSE2.6 kmh SSE 1.6 mph2.6 kmh 29.64 in1003.7 mb 0.00 in0.0 mm 0.00 in0.0 mm 0.00 in0.0 mm
11:35 AM 43.1°F6.2°C 41.0°F5.0°C 76% 0.9 mph SE1.4 kmh SE 1.1 mph1.8 kmh 29.64 in1003.7 mb 0.00 in0.0 mm 0.00 in0.0 mm 0.00 in0.0 mm
11:34 AM 43.1°F6.2°C 41.1°F5.1°C 76% 0.8 mph SE1.3 kmh SE 0.8 mph1.3 kmh 29.64 in1003.7 mb 0.00 in0.0 mm 0.00 in0.0 mm 0.00 in0.0 mm
11:32 AM 43.0°F6.1°C 41.2°F5.1°C 77% 1.6 mph SSE2.6 kmh SSE 1.6 mph2.6 kmh 29.64 in1003.7 mb 0.00 in0.0 mm 0.00 in0.0 mm 0.00 in0.0 mm
11:31 AM 42.9°F6.1°C 41.1°F5.1°C 77% 1.6 mph SSE2.6 kmh SSE 1.6 mph2.6 kmh 29.64 in1003.7 mb 0.00 in0.0 mm 0.00 in0.0 mm 0.00 in0.0 mm
11:29 AM 42.6°F5.9°C 40.3°F4.6°C 75% 3.7 mph SE6.0 kmh SE 3.8 mph6.1 kmh 29.64 in1003.7 mb 0.00 in0.0 mm 0.00 in0.0 mm 0.00 in0.0 mm
11:28 AM 42.6°F5.9°C 40.3°F4.6°C 75% 3.2 mph SE5.1 kmh SE 3.2 mph5.1 kmh 29.64 in1003.7 mb 0.00 in0.0 mm 0.00 in0.0 mm 0.00 in0.0 mm
11:26 AM 42.6°F5.9°C 40.9°F4.9°C 76% 3.3 mph SSE5.3 kmh SSE 3.3 mph5.3 kmh 29.64 in1003.7 mb 0.00 in0.0 mm 0.00 in0.0 mm 0.00 in0.0 mm
11:25 AM 42.6°F5.9°C 40.5°F4.7°C 76% 3.2 mph SSE5.1 kmh SSE 3.2 mph5.1 kmh 29.64 in1003.7 mb 0.00 in0.0 mm 0.00 in0.0 mm 0.00 in0.0 mm
11:23 AM 42.4°F5.8°C 40.7°F4.8°C 77% 2.5 mph SSE4.0 kmh SSE 2.5 mph4.0 kmh 29.64 in1003.7 mb 0.00 in0.0 mm 0.00 in0.0 mm 0.00 in0.0 mm
11:22 AM 42.4°F5.8°C 40.9°F4.9°C 77% 2.4 mph SSE3.9 kmh SSE 2.4 mph3.9 kmh 29.64 in1003.7 mb 0.00 in0.0 mm 0.00 in0.0 mm 0.00 in0.0 mm
11:20 AM 42.1°F5.6°C 40.7°F4.8°C 77% 4.9 mph SE7.9 kmh SE 4.9 mph7.9 kmh 29.64 in1003.7 mb 0.00 in0.0 mm 0.00 in0.0 mm 0.00 in0.0 mm
11:19 AM 42.1°F5.6°C 40.6°F4.8°C 77% 4.8 mph SE7.7 kmh SE 4.8 mph7.7 kmh 29.64 in1003.7 mb 0.00 in0.0 mm 0.00 in0.0 mm 0.00 in0.0 mm
11:17 AM 42.2°F5.7°C 40.5°F4.7°C 77% 3.1 mph S5.0 kmh S 3.1 mph5.0 kmh 29.64 in1003.7 mb 0.00 in0.0 mm 0.00 in0.0 mm 0.00 in0.0 mm
11:16 AM 42.2°F5.7°C 40.9°F4.9°C 78% 3.5 mph SSE5.6 kmh SSE 3.6 mph5.8 kmh 29.64 in1003.7 mb 0.00 in0.0 mm 0.00 in0.0 mm 0.00 in0.0 mm
11:14 AM 42.1°F5.6°C 40.8°F4.9°C 78% 4.6 mph SE7.4 kmh SE 4.6 mph7.4 kmh 29.64 in1003.7 mb 0.00 in0.0 mm 0.00 in0.0 mm 0.00 in0.0 mm
11:13 AM 42.1°F5.6°C 40.9°F4.9°C 79% 4.8 mph SE7.7 kmh SE 4.9 mph7.9 kmh 29.64 in1003.7 mb 0.00 in0.0 mm 0.00 in0.0 mm 0.00 in0.0 mm
11:11 AM 41.9°F5.5°C 40.6°F4.8°C 78% 4.6 mph SSE7.4 kmh SSE 4.6 mph7.4 kmh 29.64 in1003.7 mb 0.00 in0.0 mm 0.00 in0.0 mm 0.00 in0.0 mm
11:10 AM 41.9°F5.5°C 40.6°F4.8°C 78% 4.0 mph SE6.4 kmh SE 4.1 mph6.6 kmh 29.64 in1003.7 mb 0.00 in0.0 mm 0.00 in0.0 mm 0.00 in0.0 mm
11:08 AM 42.1°F5.6°C 40.8°F4.9°C 79% 5.8 mph SSE9.3 kmh SSE 6.1 mph9.8 kmh 29.65 in1004.1 mb 0.00 in0.0 mm 0.00 in0.0 mm 0.00 in0.0 mm
11:07 AM 42.1°F5.6°C 41.0°F5.0°C 79% 7.2 mph SE11.6 kmh SE 7.2 mph11.6 kmh 29.65 in1004.1 mb 0.00 in0.0 mm 0.00 in0.0 mm 0.00 in0.0 mm
11:05 AM 41.9°F5.5°C 40.7°F4.8°C 79% 3.0 mph SSE4.8 kmh SSE 3.1 mph5.0 kmh 29.65 in1004.1 mb 0.00 in0.0 mm 0.00 in0.0 mm 0.00 in0.0 mm
11:04 AM 41.9°F5.5°C 40.9°F4.9°C 79% 3.6 mph SSE5.8 kmh SSE 3.7 mph6.0 kmh 29.65 in1004.1 mb 0.00 in0.0 mm 0.00 in0.0 mm 0.00 in0.0 mm
11:02 AM 42.1°F5.6°C 40.8°F4.9°C 80% 7.4 mph SE11.9 kmh SE 7.5 mph12.1 kmh 29.64 in1003.7 mb 0.00 in0.0 mm 0.00 in0.0 mm 0.00 in0.0 mm
11:01 AM 42.1°F5.6°C 41.1°F5.1°C 80% 6.3 mph NNW10.1 kmh NNW 6.4 mph10.3 kmh 29.65 in1004.1 mb 0.00 in0.0 mm 0.00 in0.0 mm 0.00 in0.0 mm
10:59 AM 41.8°F5.4°C 41.0°F5.0°C 81% 7.9 mph SE12.7 kmh SE 7.9 mph12.7 kmh 29.65 in1004.1 mb 0.00 in0.0 mm 0.00 in0.0 mm 0.00 in0.0 mm
10:58 AM 41.9°F5.5°C 41.1°F5.1°C 81% 6.5 mph SE10.5 kmh SE 6.5 mph10.5 kmh 29.64 in1003.7 mb 0.00 in0.0 mm 0.00 in0.0 mm 0.00 in0.0 mm
10:56 AM 41.5°F5.3°C 40.2°F4.6°C 78% 4.4 mph SSE7.1 kmh SSE 4.4 mph7.1 kmh 29.65 in1004.1 mb 0.00 in0.0 mm 0.00 in0.0 mm 0.00 in0.0 mm
10:55 AM 41.3°F5.2°C 40.1°F4.5°C 78% 4.9 mph SSE7.9 kmh SSE 4.9 mph7.9 kmh 29.65 in1004.1 mb 0.00 in0.0 mm 0.00 in0.0 mm 0.00 in0.0 mm
10:53 AM 41.5°F5.3°C 40.7°F4.8°C 80% 3.9 mph SE6.3 kmh SE 4.0 mph6.4 kmh 29.65 in1004.1 mb 0.00 in0.0 mm 0.00 in0.0 mm 0.00 in0.0 mm
10:52 AM 41.5°F5.3°C 40.6°F4.8°C 80% 4.7 mph SE7.6 kmh SE 4.7 mph7.6 kmh 29.65 in1004.1 mb 0.00 in0.0 mm 0.00 in0.0 mm 0.00 in0.0 mm
10:50 AM 41.3°F5.2°C 40.8°F4.9°C 80% 6.0 mph S9.7 kmh S 6.0 mph9.7 kmh 29.65 in1004.1 mb 0.00 in0.0 mm 0.00 in0.0 mm 0.00 in0.0 mm
10:49 AM 41.2°F5.1°C 40.6°F4.8°C 80% 4.0 mph SSE6.4 kmh SSE 4.1 mph6.6 kmh 29.65 in1004.1 mb 0.00 in0.0 mm 0.00 in0.0 mm 0.00 in0.0 mm
10:47 AM 41.2°F5.1°C 40.6°F4.8°C 80% 4.1 mph SE6.6 kmh SE 4.3 mph6.9 kmh 29.65 in1004.1 mb 0.00 in0.0 mm 0.00 in0.0 mm 0.00 in0.0 mm
10:46 AM 41.2°F5.1°C 41.1°F5.1°C 81% 4.4 mph SE7.1 kmh SE 4.4 mph7.1 kmh 29.65 in1004.1 mb 0.00 in0.0 mm 0.00 in0.0 mm 0.00 in0.0 mm
10:44 AM 40.9°F4.9°C 40.6°F4.8°C 80% 4.7 mph SE7.6 kmh SE 4.8 mph7.7 kmh 29.65 in1004.1 mb 0.00 in0.0 mm 0.00 in0.0 mm 0.00 in0.0 mm
10:43 AM 40.9°F4.9°C 40.8°F4.9°C 81% 5.3 mph SE8.5 kmh SE 5.3 mph8.5 kmh 29.65 in1004.1 mb 0.00 in0.0 mm 0.00 in0.0 mm 0.00 in0.0 mm
10:41 AM 40.7°F4.8°C 41.0°F5.0°C 81% 2.1 mph ESE3.4 kmh ESE 2.1 mph3.4 kmh 29.66 in1004.4 mb 0.00 in0.0 mm 0.00 in0.0 mm 0.00 in0.0 mm
10:40 AM 40.7°F4.8°C 40.7°F4.8°C 80% 2.0 mph ESE3.2 kmh ESE 2.0 mph3.2 kmh 29.66 in1004.4 mb 0.00 in0.0 mm 0.00 in0.0 mm 0.00 in0.0 mm
10:38 AM 40.7°F4.8°C 40.8°F4.9°C 81% 4.2 mph SE6.8 kmh SE 4.2 mph6.8 kmh 29.66 in1004.4 mb 0.00 in0.0 mm 0.00 in0.0 mm 0.00 in0.0 mm
10:37 AM 40.7°F4.8°C 40.5°F4.7°C 81% 3.6 mph SE5.8 kmh SE 3.7 mph6.0 kmh 29.66 in1004.4 mb 0.00 in0.0 mm 0.00 in0.0 mm 0.00 in0.0 mm
10:35 AM 40.7°F4.8°C 40.7°F4.8°C 81% 1.8 mph SE2.9 kmh SE 1.9 mph3.1 kmh 29.66 in1004.4 mb 0.00 in0.0 mm 0.00 in0.0 mm 0.00 in0.0 mm
10:34 AM 40.6°F4.8°C 40.6°F4.8°C 81% 2.0 mph SE3.2 kmh SE 2.0 mph3.2 kmh 29.66 in1004.4 mb 0.00 in0.0 mm 0.00 in0.0 mm 0.00 in0.0 mm
10:32 AM 40.4°F4.7°C 40.5°F4.7°C 81% 1.9 mph SE3.1 kmh SE 2.0 mph3.2 kmh 29.66 in1004.4 mb 0.00 in0.0 mm 0.00 in0.0 mm 0.00 in0.0 mm
10:31 AM 40.4°F4.7°C 40.4°F4.7°C 81% 2.0 mph SE3.2 kmh SE 2.0 mph3.2 kmh 29.66 in1004.4 mb 0.00 in0.0 mm 0.00 in0.0 mm 0.00 in0.0 mm
10:29 AM 40.4°F4.7°C 40.4°F4.7°C 81% 0.9 mph SSE1.4 kmh SSE 1.0 mph1.6 kmh 29.66 in1004.4 mb 0.00 in0.0 mm 0.00 in0.0 mm 0.00 in0.0 mm
10:28 AM 40.4°F4.7°C 40.6°F4.8°C 81% 1.6 mph SSE2.6 kmh SSE 1.6 mph2.6 kmh 29.66 in1004.4 mb 0.00 in0.0 mm 0.00 in0.0 mm 0.00 in0.0 mm
10:26 AM 40.3°F4.6°C 40.4°F4.7°C 81% 3.2 mph SE5.1 kmh SE 3.2 mph5.1 kmh 29.66 in1004.4 mb 0.00 in0.0 mm 0.00 in0.0 mm 0.00 in0.0 mm
10:25 AM 40.2°F4.6°C 40.5°F4.7°C 81% 3.2 mph SSE5.1 kmh SSE 3.2 mph5.1 kmh 29.66 in1004.4 mb 0.00 in0.0 mm 0.00 in0.0 mm 0.00 in0.0 mm
10:23 AM 39.8°F4.3°C 39.7°F4.3°C 80% 4.4 mph S7.1 kmh S 4.4 mph7.1 kmh 29.66 in1004.4 mb 0.00 in0.0 mm 0.00 in0.0 mm 0.00 in0.0 mm
10:22 AM 39.8°F4.3°C 40.1°F4.5°C 80% 3.6 mph SSE5.8 kmh SSE 3.6 mph5.8 kmh 29.66 in1004.4 mb 0.00 in0.0 mm 0.00 in0.0 mm 0.00 in0.0 mm
10:20 AM 39.7°F4.3°C 40.2°F4.6°C 81% 0.3 mph S0.5 kmh S 0.3 mph0.5 kmh 29.66 in1004.4 mb 0.00 in0.0 mm 0.00 in0.0 mm 0.00 in0.0 mm
10:19 AM 39.7°F4.3°C 40.3°F4.6°C 81% 0.4 mph NNW0.6 kmh NNW 0.4 mph0.6 kmh 29.66 in1004.4 mb 0.00 in0.0 mm 0.00 in0.0 mm 0.00 in0.0 mm
10:17 AM 39.8°F4.3°C 39.8°F4.3°C 81% 1.6 mph SE2.6 kmh SE 1.6 mph2.6 kmh 29.66 in1004.4 mb 0.00 in0.0 mm 0.00 in0.0 mm 0.00 in0.0 mm
10:16 AM 39.9°F4.4°C 39.8°F4.3°C 81% 1.6 mph SE2.6 kmh SE 1.6 mph2.6 kmh 29.66 in1004.4 mb 0.00 in0.0 mm 0.00 in0.0 mm 0.00 in0.0 mm
10:14 AM 39.5°F4.2°C 39.4°F4.1°C 80% 2.3 mph SSE3.7 kmh SSE 2.3 mph3.7 kmh 29.66 in1004.4 mb 0.00 in0.0 mm 0.00 in0.0 mm 0.00 in0.0 mm
10:13 AM 39.5°F4.2°C 39.3°F4.1°C 80% 2.8 mph SSE4.5 kmh SSE 2.9 mph4.7 kmh 29.66 in1004.4 mb 0.00 in0.0 mm 0.00 in0.0 mm 0.00 in0.0 mm
10:11 AM 39.5°F4.2°C 39.9°F4.4°C 81% 3.4 mph SSE5.5 kmh SSE 3.4 mph5.5 kmh 29.66 in1004.4 mb 0.00 in0.0 mm 0.00 in0.0 mm 0.00 in0.0 mm
10:10 AM 39.5°F4.2°C 39.8°F4.3°C 81% 2.4 mph SSE3.9 kmh SSE 2.4 mph3.9 kmh 29.66 in1004.4 mb 0.00 in0.0 mm 0.00 in0.0 mm 0.00 in0.0 mm
10:08 AM 39.3°F4.1°C 40.0°F4.4°C 81% 4.2 mph SE6.8 kmh SE 4.2 mph6.8 kmh 29.66 in1004.4 mb 0.00 in0.0 mm 0.00 in0.0 mm 0.00 in0.0 mm
10:07 AM 39.3°F4.1°C 39.5°F4.2°C 81% 4.0 mph SE6.4 kmh SE 4.1 mph6.6 kmh 29.66 in1004.4 mb 0.00 in0.0 mm 0.00 in0.0 mm 0.00 in0.0 mm
10:05 AM 39.9°F4.4°C 40.2°F4.6°C 83% 6.0 mph SSE9.7 kmh SSE 6.0 mph9.7 kmh 29.67 in1004.7 mb 0.00 in0.0 mm 0.00 in0.0 mm 0.00 in0.0 mm
10:04 AM 39.9°F4.4°C 40.3°F4.6°C 83% 6.0 mph SSE9.7 kmh SSE 6.0 mph9.7 kmh 29.66 in1004.4 mb 0.00 in0.0 mm 0.00 in0.0 mm 0.00 in0.0 mm
10:02 AM 39.7°F4.3°C 40.2°F4.6°C 83% 6.1 mph SE9.8 kmh SE 6.1 mph9.8 kmh 29.66 in1004.4 mb 0.00 in0.0 mm 0.00 in0.0 mm 0.00 in0.0 mm
10:01 AM 39.8°F4.3°C 40.1°F4.5°C 83% 5.7 mph SSE9.2 kmh SSE 5.7 mph9.2 kmh 29.66 in1004.4 mb 0.00 in0.0 mm 0.00 in0.0 mm 0.00 in0.0 mm
09:59 AM 39.3°F4.1°C 39.8°F4.3°C 82% 7.7 mph SE12.4 kmh SE 7.9 mph12.7 kmh 29.67 in1004.7 mb 0.00 in0.0 mm 0.00 in0.0 mm 0.00 in0.0 mm
09:58 AM 39.3°F4.1°C 40.1°F4.5°C 82% 8.4 mph SE13.5 kmh SE 8.4 mph13.5 kmh 29.67 in1004.7 mb 0.00 in0.0 mm 0.00 in0.0 mm 0.00 in0.0 mm
09:56 AM 39.2°F4.0°C 39.6°F4.2°C 82% 5.0 mph SSE8.0 kmh SSE 5.0 mph8.0 kmh 29.67 in1004.7 mb 0.00 in0.0 mm 0.00 in0.0 mm 0.00 in0.0 mm
09:55 AM 39.2°F4.0°C 39.6°F4.2°C 82% 5.6 mph SE9.0 kmh SE 5.7 mph9.2 kmh 29.67 in1004.7 mb 0.00 in0.0 mm 0.00 in0.0 mm 0.00 in0.0 mm
09:53 AM 39.8°F4.3°C 40.0°F4.4°C 82% 3.0 mph SSE4.8 kmh SSE 3.0 mph4.8 kmh 29.67 in1004.7 mb 0.00 in0.0 mm 0.00 in0.0 mm 0.00 in0.0 mm
09:52 AM 39.8°F4.3°C 40.1°F4.5°C 83% 4.0 mph SSE6.4 kmh SSE 4.0 mph6.4 kmh 29.67 in1004.7 mb 0.00 in0.0 mm 0.00 in0.0 mm 0.00 in0.0 mm
09:49 AM 39.9°F4.4°C 40.3°F4.6°C 82% 4.4 mph SE7.1 kmh SE 4.5 mph7.2 kmh 29.67 in1004.7 mb 0.00 in0.0 mm 0.00 in0.0 mm 0.00 in0.0 mm
09:47 AM 40.3°F4.6°C 39.8°F4.3°C 83% 1.8 mph SSE2.9 kmh SSE 1.8 mph2.9 kmh 29.67 in1004.7 mb 0.00 in0.0 mm 0.00 in0.0 mm 0.00 in0.0 mm
09:46 AM 40.3°F4.6°C 40.2°F4.6°C 83% 2.4 mph SE3.9 kmh SE 2.4 mph3.9 kmh 29.67 in1004.7 mb 0.00 in0.0 mm 0.00 in0.0 mm 0.00 in0.0 mm
09:44 AM 39.8°F4.3°C 39.7°F4.3°C 82% 1.1 mph S1.8 kmh S 1.1 mph1.8 kmh 29.67 in1004.7 mb 0.00 in0.0 mm 0.00 in0.0 mm 0.00 in0.0 mm
09:43 AM 39.7°F4.3°C 39.7°F4.3°C 82% 1.2 mph SSE1.9 kmh SSE 1.2 mph1.9 kmh 29.67 in1004.7 mb 0.00 in0.0 mm 0.00 in0.0 mm 0.00 in0.0 mm
09:41 AM 39.4°F4.1°C 39.3°F4.1°C 81% 3.9 mph SSE6.3 kmh SSE 3.9 mph6.3 kmh 29.67 in1004.7 mb 0.00 in0.0 mm 0.00 in0.0 mm 0.00 in0.0 mm
09:40 AM 39.3°F4.1°C 39.5°F4.2°C 82% 3.6 mph SSE5.8 kmh SSE 3.6 mph5.8 kmh 29.67 in1004.7 mb 0.00 in0.0 mm 0.00 in0.0 mm 0.00 in0.0 mm
09:38 AM 39.5°F4.2°C 39.6°F4.2°C 82% 0.9 mph S1.4 kmh S 0.9 mph1.4 kmh 29.67 in1004.7 mb 0.00 in0.0 mm 0.00 in0.0 mm 0.00 in0.0 mm
09:37 AM 39.5°F4.2°C 39.5°F4.2°C 82% 1.2 mph S1.9 kmh S 1.2 mph1.9 kmh 29.67 in1004.7 mb 0.00 in0.0 mm 0.00 in0.0 mm 0.00 in0.0 mm
09:35 AM 39.3°F4.1°C 39.8°F4.3°C 83% 2.6 mph S4.2 kmh S 2.6 mph4.2 kmh 29.67 in1004.7 mb 0.00 in0.0 mm 0.00 in0.0 mm 0.00 in0.0 mm
09:34 AM 39.3°F4.1°C 39.8°F4.3°C 83% 1.2 mph S1.9 kmh S 1.2 mph1.9 kmh 29.67 in1004.7 mb 0.00 in0.0 mm 0.00 in0.0 mm 0.00 in0.0 mm
09:32 AM 39.3°F4.1°C 39.5°F4.2°C 82% 3.3 mph SSE5.3 kmh SSE 3.3 mph5.3 kmh 29.67 in1004.7 mb 0.00 in0.0 mm 0.00 in0.0 mm 0.00 in0.0 mm
09:31 AM 39.3°F4.1°C 39.6°F4.2°C 83% 2.8 mph SSE4.5 kmh SSE 2.9 mph4.7 kmh 29.67 in1004.7 mb 0.00 in0.0 mm 0.00 in0.0 mm 0.00 in0.0 mm
09:29 AM 39.7°F4.3°C 39.8°F4.3°C 84% Calm Calm -- 29.67 in1004.7 mb 0.00 in0.0 mm 0.00 in0.0 mm 0.00 in0.0 mm
09:28 AM 39.7°F4.3°C 39.8°F4.3°C 84% Calm Calm -- 29.67 in1004.7 mb 0.00 in0.0 mm 0.00 in0.0 mm 0.00 in0.0 mm
09:26 AM 39.4°F4.1°C 39.9°F4.4°C 84% Calm Calm -- 29.67 in1004.7 mb 0.00 in0.0 mm 0.00 in0.0 mm 0.00 in0.0 mm
09:25 AM 39.5°F4.2°C 39.7°F4.3°C 84% Calm Calm -- 29.66 in1004.4 mb 0.00 in0.0 mm 0.00 in0.0 mm 0.00 in0.0 mm
09:23 AM 39.1°F3.9°C 39.4°F4.1°C 83% 2.1 mph SSE3.4 kmh SSE 2.2 mph3.5 kmh 29.66 in1004.4 mb 0.00 in0.0 mm 0.00 in0.0 mm 0.00 in0.0 mm
09:22 AM 39.1°F3.9°C 39.7°F4.3°C 84% 2.0 mph SSE3.2 kmh SSE 2.0 mph3.2 kmh 29.67 in1004.7 mb 0.00 in0.0 mm 0.00 in0.0 mm 0.00 in0.0 mm
09:20 AM 39.3°F4.1°C 40.0°F4.4°C 85% 0.2 mph S0.3 kmh S 0.3 mph0.5 kmh 29.66 in1004.4 mb 0.00 in0.0 mm 0.00 in0.0 mm 0.00 in0.0 mm
09:19 AM 39.2°F4.0°C 40.0°F4.4°C 85% Calm Calm -- 29.67 in1004.7 mb 0.00 in0.0 mm 0.00 in0.0 mm 0.00 in0.0 mm
09:17 AM 39.1°F3.9°C 39.8°F4.3°C 85% Calm Calm -- 29.66 in1004.4 mb 0.00 in0.0 mm 0.00 in0.0 mm 0.00 in0.0 mm
09:16 AM 39.1°F3.9°C 39.7°F4.3°C 84% Calm Calm -- 29.66 in1004.4 mb 0.00 in0.0 mm 0.00 in0.0 mm 0.00 in0.0 mm
09:14 AM 38.5°F3.6°C 39.6°F4.2°C 84% Calm Calm -- 29.66 in1004.4 mb 0.00 in0.0 mm 0.00 in0.0 mm 0.00 in0.0 mm
09:13 AM 38.6°F3.7°C 39.5°F4.2°C 84% 0.8 mph NNW1.3 kmh NNW 0.8 mph1.3 kmh 29.67 in1004.7 mb 0.00 in0.0 mm 0.00 in0.0 mm 0.00 in0.0 mm
09:11 AM 38.6°F3.7°C 39.6°F4.2°C 85% 1.2 mph S1.9 kmh S 1.2 mph1.9 kmh 29.66 in1004.4 mb 0.00 in0.0 mm 0.00 in0.0 mm 0.00 in0.0 mm
09:10 AM 38.6°F3.7°C 39.7°F4.3°C 85% 1.6 mph S2.6 kmh S 1.6 mph2.6 kmh 29.66 in1004.4 mb 0.00 in0.0 mm 0.00 in0.0 mm 0.00 in0.0 mm
09:07 AM 38.4°F3.6°C 39.6°F4.2°C 84% Calm Calm -- 29.67 in1004.7 mb 0.00 in0.0 mm 0.00 in0.0 mm 0.00 in0.0 mm
09:05 AM 38.2°F3.4°C 39.6°F4.2°C 85% 0.5 mph S0.8 kmh S 0.5 mph0.8 kmh 29.67 in1004.7 mb 0.00 in0.0 mm 0.00 in0.0 mm 0.00 in0.0 mm
09:04 AM 38.2°F3.4°C 39.5°F4.2°C 84% 0.8 mph S1.3 kmh S 0.8 mph1.3 kmh 29.66 in1004.4 mb 0.00 in0.0 mm 0.00 in0.0 mm 0.00 in0.0 mm
09:02 AM 38.3°F3.5°C 39.6°F4.2°C 85% 2.5 mph SSE4.0 kmh SSE 2.5 mph4.0 kmh 29.67 in1004.7 mb 0.00 in0.0 mm 0.00 in0.0 mm 0.00 in0.0 mm
09:01 AM 38.2°F3.4°C 39.6°F4.2°C 85% 2.4 mph NNW3.9 kmh NNW 2.4 mph3.9 kmh 29.67 in1004.7 mb 0.00 in0.0 mm 0.00 in0.0 mm 0.00 in0.0 mm
08:59 AM 37.9°F3.3°C 39.3°F4.1°C 85% 1.4 mph S2.3 kmh S 1.5 mph2.4 kmh 29.66 in1004.4 mb 0.00 in0.0 mm 0.00 in0.0 mm 0.00 in0.0 mm
08:58 AM 37.9°F3.3°C 39.1°F3.9°C 84% 1.6 mph S2.6 kmh S 1.6 mph2.6 kmh 29.66 in1004.4 mb 0.00 in0.0 mm 0.00 in0.0 mm 0.00 in0.0 mm
08:56 AM 37.9°F3.3°C 39.2°F4.0°C 85% 2.3 mph SSE3.7 kmh SSE 2.6 mph4.2 kmh 29.66 in1004.4 mb 0.00 in0.0 mm 0.00 in0.0 mm 0.00 in0.0 mm
08:55 AM 37.9°F3.3°C 39.0°F3.9°C 84% 2.8 mph SSE4.5 kmh SSE 2.8 mph4.5 kmh 29.66 in1004.4 mb 0.00 in0.0 mm 0.00 in0.0 mm 0.00 in0.0 mm
08:53 AM 37.9°F3.3°C 39.5°F4.2°C 86% Calm Calm -- 29.66 in1004.4 mb 0.00 in0.0 mm 0.00 in0.0 mm 0.00 in0.0 mm
08:52 AM 37.7°F3.2°C 39.4°F4.1°C 85% 0.4 mph SSE0.6 kmh SSE 0.4 mph0.6 kmh 29.66 in1004.4 mb 0.00 in0.0 mm 0.00 in0.0 mm 0.00 in0.0 mm
08:50 AM 37.7°F3.2°C 38.9°F3.8°C 85% 0.4 mph SSE0.6 kmh SSE 0.5 mph0.8 kmh 29.66 in1004.4 mb 0.00 in0.0 mm 0.00 in0.0 mm 0.00 in0.0 mm
08:49 AM 37.7°F3.2°C 39.4°F4.1°C 86% 0.4 mph NNW0.6 kmh NNW 0.4 mph0.6 kmh 29.66 in1004.4 mb 0.00 in0.0 mm 0.00 in0.0 mm 0.00 in0.0 mm
08:47 AM 37.6°F3.1°C 39.2°F4.0°C 86% 5.1 mph NNW8.2 kmh NNW 5.1 mph8.2 kmh 29.66 in1004.4 mb 0.00 in0.0 mm 0.00 in0.0 mm 0.00 in0.0 mm
08:46 AM 37.5°F3.1°C 39.2°F4.0°C 86% 4.8 mph NNW7.7 kmh NNW 4.8 mph7.7 kmh 29.66 in1004.4 mb 0.00 in0.0 mm 0.00 in0.0 mm 0.00 in0.0 mm
08:44 AM 37.4°F3.0°C 39.3°F4.1°C 85% 1.9 mph SSE3.1 kmh SSE 1.9 mph3.1 kmh 29.66 in1004.4 mb 0.00 in0.0 mm 0.00 in0.0 mm 0.00 in0.0 mm
08:43 AM 37.4°F3.0°C 39.4°F4.1°C 86% 0.8 mph SSE1.3 kmh SSE 0.8 mph1.3 kmh 29.66 in1004.4 mb 0.00 in0.0 mm 0.00 in0.0 mm 0.00 in0.0 mm
08:41 AM 37.3°F2.9°C 39.6°F4.2°C 86% 0.5 mph SSE0.8 kmh SSE 0.5 mph0.8 kmh 29.66 in1004.4 mb 0.00 in0.0 mm 0.00 in0.0 mm 0.00 in0.0 mm
08:40 AM 37.3°F2.9°C 39.4°F4.1°C 86% 0.4 mph NNW0.6 kmh NNW 0.4 mph0.6 kmh 29.66 in1004.4 mb 0.00 in0.0 mm 0.00 in0.0 mm 0.00 in0.0 mm
08:38 AM 37.3°F2.9°C 38.9°F3.8°C 85% 1.2 mph SSE1.9 kmh SSE 1.2 mph1.9 kmh 29.66 in1004.4 mb 0.00 in0.0 mm 0.00 in0.0 mm 0.00 in0.0 mm
08:37 AM 37.2°F2.9°C 39.6°F4.2°C 86% 1.2 mph SSE1.9 kmh SSE 1.2 mph1.9 kmh 29.66 in1004.4 mb 0.00 in0.0 mm 0.00 in0.0 mm 0.00 in0.0 mm
08:35 AM 37.2°F2.9°C 39.3°F4.1°C 86% Calm Calm -- 29.66 in1004.4 mb 0.00 in0.0 mm 0.00 in0.0 mm 0.00 in0.0 mm
08:34 AM 37.2°F2.9°C 39.4°F4.1°C 86% Calm Calm -- 29.66 in1004.4 mb 0.00 in0.0 mm 0.00 in0.0 mm 0.00 in0.0 mm
08:32 AM 37.2°F2.9°C 39.3°F4.1°C 86% Calm Calm -- 29.65 in1004.1 mb 0.00 in0.0 mm 0.00 in0.0 mm 0.00 in0.0 mm
08:31 AM 37.2°F2.9°C 39.4°F4.1°C 86% Calm Calm -- 29.66 in1004.4 mb 0.00 in0.0 mm 0.00 in0.0 mm 0.00 in0.0 mm
08:29 AM 37.2°F2.9°C 38.8°F3.8°C 86% 4.4 mph SE7.1 kmh SE 4.4 mph7.1 kmh 29.65 in1004.1 mb 0.00 in0.0 mm 0.00 in0.0 mm 0.00 in0.0 mm
08:28 AM 37.2°F2.9°C 39.0°F3.9°C 86% 4.6 mph SE7.4 kmh SE 4.6 mph7.4 kmh 29.66 in1004.4 mb 0.00 in0.0 mm 0.00 in0.0 mm 0.00 in0.0 mm
08:26 AM 37.1°F2.8°C 38.8°F3.8°C 86% 2.5 mph NNW4.0 kmh NNW 2.5 mph4.0 kmh 29.65 in1004.1 mb 0.00 in0.0 mm 0.00 in0.0 mm 0.00 in0.0 mm
08:25 AM 37.1°F2.8°C 38.8°F3.8°C 86% 2.4 mph NNW3.9 kmh NNW 2.4 mph3.9 kmh 29.65 in1004.1 mb 0.00 in0.0 mm 0.00 in0.0 mm 0.00 in0.0 mm
08:23 AM 37.1°F2.8°C 38.9°F3.8°C 86% 2.8 mph NNW4.5 kmh NNW 2.8 mph4.5 kmh 29.65 in1004.1 mb 0.00 in0.0 mm 0.00 in0.0 mm 0.00 in0.0 mm
08:22 AM 37.0°F2.8°C 38.7°F3.7°C 85% 3.2 mph NNW5.1 kmh NNW 3.3 mph5.3 kmh 29.65 in1004.1 mb 0.00 in0.0 mm 0.00 in0.0 mm 0.00 in0.0 mm
08:20 AM 37.0°F2.8°C 39.3°F4.1°C 86% 2.5 mph S4.0 kmh S 2.5 mph4.0 kmh 29.64 in1003.7 mb 0.00 in0.0 mm 0.00 in0.0 mm 0.00 in0.0 mm
08:19 AM 37.0°F2.8°C 38.9°F3.8°C 86% 2.0 mph S3.2 kmh S 2.0 mph3.2 kmh 29.65 in1004.1 mb 0.00 in0.0 mm 0.00 in0.0 mm 0.00 in0.0 mm
08:17 AM 37.0°F2.8°C 38.6°F3.7°C 86% 0.9 mph SSW1.4 kmh SSW 0.9 mph1.4 kmh 29.65 in1004.1 mb 0.00 in0.0 mm 0.00 in0.0 mm 0.00 in0.0 mm
08:16 AM 36.8°F2.7°C 38.6°F3.7°C 86% 1.2 mph SSW1.9 kmh SSW 1.2 mph1.9 kmh 29.65 in1004.1 mb 0.00 in0.0 mm 0.00 in0.0 mm 0.00 in0.0 mm
08:14 AM 37.0°F2.8°C 39.0°F3.9°C 86% 1.2 mph S1.9 kmh S 1.2 mph1.9 kmh 29.65 in1004.1 mb 0.00 in0.0 mm 0.00 in0.0 mm 0.00 in0.0 mm
08:13 AM 36.8°F2.7°C 38.9°F3.8°C 86% 1.6 mph S2.6 kmh S 1.6 mph2.6 kmh 29.64 in1003.7 mb 0.00 in0.0 mm 0.00 in0.0 mm 0.00 in0.0 mm
08:11 AM 36.7°F2.6°C 38.8°F3.8°C 86% 3.0 mph SSE4.8 kmh SSE 3.0 mph4.8 kmh 29.64 in1003.7 mb 0.00 in0.0 mm 0.00 in0.0 mm 0.00 in0.0 mm
08:10 AM 36.7°F2.6°C 38.8°F3.8°C 86% 3.2 mph SSE5.1 kmh SSE 3.2 mph5.1 kmh 29.64 in1003.7 mb 0.00 in0.0 mm 0.00 in0.0 mm 0.00 in0.0 mm
08:08 AM 36.6°F2.6°C 39.4°F4.1°C 87% 0.2 mph SSE0.3 kmh SSE 0.3 mph0.5 kmh 29.64 in1003.7 mb 0.00 in0.0 mm 0.00 in0.0 mm 0.00 in0.0 mm
08:07 AM 36.6°F2.6°C 39.5°F4.2°C 87% 0.4 mph NNW0.6 kmh NNW 0.4 mph0.6 kmh 29.64 in1003.7 mb 0.00 in0.0 mm 0.00 in0.0 mm 0.00 in0.0 mm
08:05 AM 36.6°F2.6°C 39.2°F4.0°C 87% Calm Calm -- 29.64 in1003.7 mb 0.00 in0.0 mm 0.00 in0.0 mm 0.00 in0.0 mm
08:04 AM 36.5°F2.5°C 39.1°F3.9°C 87% 0.8 mph SSE1.3 kmh SSE 0.8 mph1.3 kmh 29.64 in1003.7 mb 0.00 in0.0 mm 0.00 in0.0 mm 0.00 in0.0 mm
08:02 AM 36.5°F2.5°C 39.2°F4.0°C 87% Calm Calm -- 29.64 in1003.7 mb 0.00 in0.0 mm 0.00 in0.0 mm 0.00 in0.0 mm
08:01 AM 36.4°F2.4°C 39.1°F3.9°C 87% Calm Calm -- 29.64 in1003.7 mb 0.00 in0.0 mm 0.00 in0.0 mm 0.00 in0.0 mm
07:59 AM 36.4°F2.4°C 39.1°F3.9°C 87% Calm Calm -- 29.64 in1003.7 mb 0.00 in0.0 mm 0.00 in0.0 mm 0.00 in0.0 mm
07:58 AM 36.4°F2.4°C 39.3°F4.1°C 87% 0.4 mph NNW0.6 kmh NNW 0.4 mph0.6 kmh 29.64 in1003.7 mb 0.00 in0.0 mm 0.00 in0.0 mm 0.00 in0.0 mm
07:56 AM 36.4°F2.4°C 39.0°F3.9°C 87% 3.0 mph SSE4.8 kmh SSE 3.0 mph4.8 kmh 29.64 in1003.7 mb 0.00 in0.0 mm 0.00 in0.0 mm 0.00 in0.0 mm
07:55 AM 36.4°F2.4°C 39.0°F3.9°C 87% 3.2 mph SSE5.1 kmh SSE 3.2 mph5.1 kmh 29.64 in1003.7 mb 0.00 in0.0 mm 0.00 in0.0 mm 0.00 in0.0 mm
07:53 AM 36.3°F2.4°C 39.1°F3.9°C 87% 2.6 mph SSE4.2 kmh SSE 2.6 mph4.2 kmh 29.64 in1003.7 mb 0.00 in0.0 mm 0.00 in0.0 mm 0.00 in0.0 mm
07:52 AM 36.3°F2.4°C 39.1°F3.9°C 87% 2.8 mph SSE4.5 kmh SSE 2.8 mph4.5 kmh 29.64 in1003.7 mb 0.00 in0.0 mm 0.00 in0.0 mm 0.00 in0.0 mm
07:50 AM 36.3°F2.4°C 39.0°F3.9°C 87% 0.5 mph NNW0.8 kmh NNW 0.5 mph0.8 kmh 29.64 in1003.7 mb 0.00 in0.0 mm 0.00 in0.0 mm 0.00 in0.0 mm
07:49 AM 36.3°F2.4°C 39.1°F3.9°C 87% 1.2 mph NNW1.9 kmh NNW 1.2 mph1.9 kmh 29.64 in1003.7 mb 0.00 in0.0 mm 0.00 in0.0 mm 0.00 in0.0 mm
07:47 AM 36.3°F2.4°C 38.8°F3.8°C 87% 3.7 mph SE6.0 kmh SE 3.7 mph6.0 kmh 29.64 in1003.7 mb 0.00 in0.0 mm 0.00 in0.0 mm 0.00 in0.0 mm
07:46 AM 36.3°F2.4°C 39.1°F3.9°C 87% 3.6 mph SE5.8 kmh SE 3.6 mph5.8 kmh 29.64 in1003.7 mb 0.00 in0.0 mm 0.00 in0.0 mm 0.00 in0.0 mm
07:44 AM 36.2°F2.3°C 39.3°F4.1°C 87% 2.1 mph SE3.4 kmh SE 2.1 mph3.4 kmh 29.64 in1003.7 mb 0.00 in0.0 mm 0.00 in0.0 mm 0.00 in0.0 mm
07:43 AM 36.2°F2.3°C 39.1°F3.9°C 87% 1.6 mph NNW2.6 kmh NNW 1.6 mph2.6 kmh 29.64 in1003.7 mb 0.00 in0.0 mm 0.00 in0.0 mm 0.00 in0.0 mm
07:41 AM 36.1°F2.3°C 38.9°F3.8°C 87% 0.7 mph SE1.1 kmh SE 0.7 mph1.1 kmh 29.64 in1003.7 mb 0.00 in0.0 mm 0.00 in0.0 mm 0.00 in0.0 mm
07:40 AM 36.1°F2.3°C 39.4°F4.1°C 88% 1.2 mph SE1.9 kmh SE 1.2 mph1.9 kmh 29.64 in1003.7 mb 0.00 in0.0 mm 0.00 in0.0 mm 0.00 in0.0 mm
07:38 AM 36.1°F2.3°C 39.2°F4.0°C 87% 1.6 mph SE2.6 kmh SE 1.6 mph2.6 kmh 29.64 in1003.7 mb 0.00 in0.0 mm 0.00 in0.0 mm 0.00 in0.0 mm
07:37 AM 36.1°F2.3°C 39.3°F4.1°C 87% 2.0 mph SE3.2 kmh SE 2.0 mph3.2 kmh 29.64 in1003.7 mb 0.00 in0.0 mm 0.00 in0.0 mm 0.00 in0.0 mm
07:35 AM 35.9°F2.2°C 38.8°F3.8°C 86% Calm Calm -- 29.64 in1003.7 mb 0.00 in0.0 mm 0.00 in0.0 mm 0.00 in0.0 mm
07:34 AM 35.9°F2.2°C 39.0°F3.9°C 87% Calm Calm -- 29.64 in1003.7 mb 0.00 in0.0 mm 0.00 in0.0 mm 0.00 in0.0 mm
07:32 AM 35.8°F2.1°C 39.2°F4.0°C 87% Calm Calm -- 29.64 in1003.7 mb 0.00 in0.0 mm 0.00 in0.0 mm 0.00 in0.0 mm
07:31 AM 35.8°F2.1°C 39.0°F3.9°C 87% Calm Calm -- 29.64 in1003.7 mb 0.00 in0.0 mm 0.00 in0.0 mm 0.00 in0.0 mm
07:29 AM 35.8°F2.1°C 39.2°F4.0°C 87% Calm Calm -- 29.64 in1003.7 mb 0.00 in0.0 mm 0.00 in0.0 mm 0.00 in0.0 mm
07:28 AM 35.8°F2.1°C 39.1°F3.9°C 87% Calm Calm -- 29.64 in1003.7 mb 0.00 in0.0 mm 0.00 in0.0 mm 0.00 in0.0 mm
07:26 AM 35.8°F2.1°C 39.2°F4.0°C 88% 1.2 mph SE1.9 kmh SE 1.2 mph1.9 kmh 29.64 in1003.7 mb 0.00 in0.0 mm 0.00 in0.0 mm 0.00 in0.0 mm
07:25 AM 35.8°F2.1°C 39.0°F3.9°C 88% 1.2 mph SE1.9 kmh SE 1.2 mph1.9 kmh 29.64 in1003.7 mb 0.00 in0.0 mm 0.00 in0.0 mm 0.00 in0.0 mm
07:23 AM 35.8°F2.1°C 38.9°F3.8°C 87% Calm Calm -- 29.64 in1003.7 mb 0.00 in0.0 mm 0.00 in0.0 mm 0.00 in0.0 mm
07:22 AM 35.8°F2.1°C 38.9°F3.8°C 88% Calm Calm -- 29.64 in1003.7 mb 0.00 in0.0 mm 0.00 in0.0 mm 0.00 in0.0 mm
07:20 AM 35.8°F2.1°C 38.9°F3.8°C 88% 2.5 mph SE4.0 kmh SE 2.5 mph4.0 kmh 29.64 in1003.7 mb 0.00 in0.0 mm 0.00 in0.0 mm 0.00 in0.0 mm
07:19 AM 35.7°F2.1°C 38.9°F3.8°C 88% 1.9 mph SE3.1 kmh SE 1.9 mph3.1 kmh 29.64 in1003.7 mb 0.00 in0.0 mm 0.00 in0.0 mm 0.00 in0.0 mm
07:17 AM 35.7°F2.1°C 38.8°F3.8°C 88% 2.7 mph SSE4.3 kmh SSE 2.7 mph4.3 kmh 29.63 in1003.4 mb 0.00 in0.0 mm 0.00 in0.0 mm 0.00 in0.0 mm
07:16 AM 35.7°F2.1°C 38.6°F3.7°C 88% 2.4 mph NNW3.9 kmh NNW 2.4 mph3.9 kmh 29.64 in1003.7 mb 0.00 in0.0 mm 0.00 in0.0 mm 0.00 in0.0 mm
07:14 AM 35.7°F2.1°C 38.4°F3.6°C 87% 3.5 mph SSE5.6 kmh SSE 3.5 mph5.6 kmh 29.63 in1003.4 mb 0.00 in0.0 mm 0.00 in0.0 mm 0.00 in0.0 mm
07:13 AM 35.7°F2.1°C 38.6°F3.7°C 87% 3.2 mph S5.1 kmh S 3.2 mph5.1 kmh 29.63 in1003.4 mb 0.00 in0.0 mm 0.00 in0.0 mm 0.00 in0.0 mm
07:11 AM 35.6°F2.0°C 38.8°F3.8°C 88% 2.3 mph SSE3.7 kmh SSE 2.4 mph3.9 kmh 29.63 in1003.4 mb 0.00 in0.0 mm 0.00 in0.0 mm 0.00 in0.0 mm
07:10 AM 35.6°F2.0°C 38.5°F3.6°C 87% 1.6 mph SSE2.6 kmh SSE 1.6 mph2.6 kmh 29.63 in1003.4 mb 0.00 in0.0 mm 0.00 in0.0 mm 0.00 in0.0 mm
07:08 AM 35.6°F2.0°C 38.7°F3.7°C 88% 3.7 mph SE6.0 kmh SE 3.8 mph6.1 kmh 29.63 in1003.4 mb 0.00 in0.0 mm 0.00 in0.0 mm 0.00 in0.0 mm
07:07 AM 35.6°F2.0°C 38.5°F3.6°C 88% 3.2 mph SSE5.1 kmh SSE 3.3 mph5.3 kmh 29.63 in1003.4 mb 0.00 in0.0 mm 0.00 in0.0 mm 0.00 in0.0 mm
07:05 AM 35.5°F1.9°C 38.5°F3.6°C 88% 3.3 mph SSE5.3 kmh SSE 3.6 mph5.8 kmh 29.63 in1003.4 mb 0.00 in0.0 mm 0.00 in0.0 mm 0.00 in0.0 mm
07:04 AM 35.5°F1.9°C 38.9°F3.8°C 88% 4.8 mph SSE7.7 kmh SSE 4.8 mph7.7 kmh 29.63 in1003.4 mb 0.00 in0.0 mm 0.00 in0.0 mm 0.00 in0.0 mm
07:02 AM 35.5°F1.9°C 38.6°F3.7°C 88% 3.0 mph SSE4.8 kmh SSE 3.1 mph5.0 kmh 29.63 in1003.4 mb 0.00 in0.0 mm 0.00 in0.0 mm 0.00 in0.0 mm
07:01 AM 35.5°F1.9°C 38.5°F3.6°C 88% 3.2 mph SSE5.1 kmh SSE 3.3 mph5.3 kmh 29.63 in1003.4 mb 0.00 in0.0 mm 0.00 in0.0 mm 0.00 in0.0 mm
06:59 AM 35.4°F1.9°C 38.6°F3.7°C 88% 3.5 mph SSE5.6 kmh SSE 3.6 mph5.8 kmh 29.63 in1003.4 mb 0.00 in0.0 mm 0.00 in0.0 mm 0.00 in0.0 mm
06:58 AM 35.4°F1.9°C 38.6°F3.7°C 88% 2.8 mph SSE4.5 kmh SSE 2.9 mph4.7 kmh 29.63 in1003.4 mb 0.00 in0.0 mm 0.00 in0.0 mm 0.00 in0.0 mm
06:56 AM 35.4°F1.9°C 38.7°F3.7°C 88% 3.7 mph S6.0 kmh S 3.7 mph6.0 kmh 29.63 in1003.4 mb 0.00 in0.0 mm 0.00 in0.0 mm 0.00 in0.0 mm
06:55 AM 35.3°F1.8°C 38.8°F3.8°C 88% 3.2 mph S5.1 kmh S 3.3 mph5.3 kmh 29.63 in1003.4 mb 0.00 in0.0 mm 0.00 in0.0 mm 0.00 in0.0 mm
06:53 AM 35.3°F1.8°C 38.5°F3.6°C 88% 5.9 mph SSE9.5 kmh SSE 6.0 mph9.7 kmh 29.63 in1003.4 mb 0.00 in0.0 mm 0.00 in0.0 mm 0.00 in0.0 mm
06:52 AM 35.3°F1.8°C 38.2°F3.4°C 87% 8.4 mph SE13.5 kmh SE 8.4 mph13.5 kmh 29.63 in1003.4 mb 0.00 in0.0 mm 0.00 in0.0 mm 0.00 in0.0 mm
06:50 AM 35.3°F1.8°C 38.4°F3.6°C 88% 3.7 mph SE6.0 kmh SE 3.8 mph6.1 kmh 29.63 in1003.4 mb 0.00 in0.0 mm 0.00 in0.0 mm 0.00 in0.0 mm
06:49 AM 35.3°F1.8°C 38.7°F3.7°C 88% 3.6 mph NNW5.8 kmh NNW 3.6 mph5.8 kmh 29.63 in1003.4 mb 0.00 in0.0 mm 0.00 in0.0 mm 0.00 in0.0 mm
06:47 AM 35.2°F1.8°C 38.5°F3.6°C 88% 3.3 mph SSE5.3 kmh SSE 3.3 mph5.3 kmh 29.62 in1003.0 mb 0.00 in0.0 mm 0.00 in0.0 mm 0.00 in0.0 mm
06:46 AM 35.2°F1.8°C 38.7°F3.7°C 88% 2.8 mph SSE4.5 kmh SSE 2.8 mph4.5 kmh 29.63 in1003.4 mb 0.00 in0.0 mm 0.00 in0.0 mm 0.00 in0.0 mm
06:44 AM 35.0°F1.7°C 38.6°F3.7°C 88% 3.0 mph SE4.8 kmh SE 3.0 mph4.8 kmh 29.63 in1003.4 mb 0.00 in0.0 mm 0.00 in0.0 mm 0.00 in0.0 mm
06:43 AM 35.0°F1.7°C 38.6°F3.7°C 88% 3.2 mph SE5.1 kmh SE 3.2 mph5.1 kmh 29.63 in1003.4 mb 0.00 in0.0 mm 0.00 in0.0 mm 0.00 in0.0 mm
06:41 AM 34.9°F1.6°C 38.6°F3.7°C 88% 3.9 mph NNW6.3 kmh NNW 3.9 mph6.3 kmh 29.62 in1003.0 mb 0.00 in0.0 mm 0.00 in0.0 mm 0.00 in0.0 mm
06:40 AM 34.9°F1.6°C 38.6°F3.7°C 88% 4.0 mph NNW6.4 kmh NNW 4.1 mph6.6 kmh 29.62 in1003.0 mb 0.00 in0.0 mm 0.00 in0.0 mm 0.00 in0.0 mm
06:38 AM 34.8°F1.6°C 38.5°F3.6°C 87% 3.0 mph SE4.8 kmh SE 3.0 mph4.8 kmh 29.62 in1003.0 mb 0.00 in0.0 mm 0.00 in0.0 mm 0.00 in0.0 mm
06:37 AM 34.7°F1.5°C 38.3°F3.5°C 87% 2.8 mph SSE4.5 kmh SSE 2.9 mph4.7 kmh 29.62 in1003.0 mb 0.00 in0.0 mm 0.00 in0.0 mm 0.00 in0.0 mm
06:35 AM 34.5°F1.4°C 38.4°F3.6°C 87% 3.4 mph SE5.5 kmh SE 3.5 mph5.6 kmh 29.62 in1003.0 mb 0.00 in0.0 mm 0.00 in0.0 mm 0.00 in0.0 mm
06:34 AM 34.5°F1.4°C 38.4°F3.6°C 87% 3.6 mph SE5.8 kmh SE 3.6 mph5.8 kmh 29.62 in1003.0 mb 0.00 in0.0 mm 0.00 in0.0 mm 0.00 in0.0 mm
06:32 AM 34.1°F1.2°C 38.1°F3.4°C 86% 3.5 mph SSE5.6 kmh SSE 3.5 mph5.6 kmh 29.61 in1002.7 mb 0.00 in0.0 mm 0.00 in0.0 mm 0.00 in0.0 mm
06:31 AM 34.0°F1.1°C 38.4°F3.6°C 86% 3.2 mph SE5.1 kmh SE 3.2 mph5.1 kmh 29.61 in1002.7 mb 0.00 in0.0 mm 0.00 in0.0 mm 0.00 in0.0 mm
06:29 AM 33.7°F0.9°C 38.2°F3.4°C 85% 3.7 mph SE6.0 kmh SE 3.7 mph6.0 kmh 29.61 in1002.7 mb 0.00 in0.0 mm 0.00 in0.0 mm 0.00 in0.0 mm
06:28 AM 33.7°F0.9°C 38.6°F3.7°C 86% 3.6 mph SE5.8 kmh SE 3.6 mph5.8 kmh 29.61 in1002.7 mb 0.00 in0.0 mm 0.00 in0.0 mm 0.00 in0.0 mm
06:26 AM 34.0°F1.1°C 38.4°F3.6°C 86% 2.7 mph SE4.3 kmh SE 2.7 mph4.3 kmh 29.61 in1002.7 mb 0.00 in0.0 mm 0.00 in0.0 mm 0.00 in0.0 mm
06:25 AM 34.0°F1.1°C 38.5°F3.6°C 86% 2.0 mph SE3.2 kmh SE 2.0 mph3.2 kmh 29.61 in1002.7 mb 0.00 in0.0 mm 0.00 in0.0 mm 0.00 in0.0 mm
06:23 AM 34.0°F1.1°C 38.6°F3.7°C 86% 4.2 mph SE6.8 kmh SE 4.3 mph6.9 kmh 29.61 in1002.7 mb 0.00 in0.0 mm 0.00 in0.0 mm 0.00 in0.0 mm
06:22 AM 34.0°F1.1°C 38.5°F3.6°C 86% 4.0 mph NNW6.4 kmh NNW 4.1 mph6.6 kmh 29.61 in1002.7 mb 0.00 in0.0 mm 0.00 in0.0 mm 0.00 in0.0 mm
06:20 AM 33.8°F1.0°C 38.6°F3.7°C 85% 3.2 mph NNW5.1 kmh NNW 3.2 mph5.1 kmh 29.61 in1002.7 mb 0.00 in0.0 mm 0.00 in0.0 mm 0.00 in0.0 mm
06:19 AM 33.8°F1.0°C 38.5°F3.6°C 85% 3.6 mph NNW5.8 kmh NNW 3.7 mph6.0 kmh 29.61 in1002.7 mb 0.00 in0.0 mm 0.00 in0.0 mm 0.00 in0.0 mm
06:17 AM 33.8°F1.0°C 38.7°F3.7°C 85% 1.6 mph SE2.6 kmh SE 1.7 mph2.7 kmh 29.61 in1002.7 mb 0.00 in0.0 mm 0.00 in0.0 mm 0.00 in0.0 mm
06:16 AM 33.8°F1.0°C 38.4°F3.6°C 85% 2.4 mph SE3.9 kmh SE 2.4 mph3.9 kmh 29.61 in1002.7 mb 0.00 in0.0 mm 0.00 in0.0 mm 0.00 in0.0 mm
06:14 AM 34.4°F1.3°C 38.8°F3.8°C 86% 1.6 mph SE2.6 kmh SE 1.6 mph2.6 kmh 29.61 in1002.7 mb 0.00 in0.0 mm 0.00 in0.0 mm 0.00 in0.0 mm
06:13 AM 34.4°F1.3°C 38.7°F3.7°C 86% 1.6 mph SE2.6 kmh SE 1.6 mph2.6 kmh 29.61 in1002.7 mb 0.00 in0.0 mm 0.00 in0.0 mm 0.00 in0.0 mm
06:11 AM 34.7°F1.5°C 38.8°F3.8°C 86% 1.6 mph SE2.6 kmh SE 1.6 mph2.6 kmh 29.61 in1002.7 mb 0.00 in0.0 mm 0.00 in0.0 mm 0.00 in0.0 mm
06:10 AM 34.7°F1.5°C 38.6°F3.7°C 85% 1.6 mph NNW2.6 kmh NNW 1.6 mph2.6 kmh 29.61 in1002.7 mb 0.00 in0.0 mm 0.00 in0.0 mm 0.00 in0.0 mm
06:08 AM 34.6°F1.4°C 39.1°F3.9°C 86% 2.5 mph SE4.0 kmh SE 2.5 mph4.0 kmh 29.61 in1002.7 mb 0.00 in0.0 mm 0.00 in0.0 mm 0.00 in0.0 mm
06:07 AM 34.6°F1.4°C 38.9°F3.8°C 85% 2.4 mph SE3.9 kmh SE 2.4 mph3.9 kmh 29.61 in1002.7 mb 0.00 in0.0 mm 0.00 in0.0 mm 0.00 in0.0 mm
06:05 AM 34.7°F1.5°C 38.9°F3.8°C 85% 1.8 mph SE2.9 kmh SE 1.9 mph3.1 kmh 29.61 in1002.7 mb 0.00 in0.0 mm 0.00 in0.0 mm 0.00 in0.0 mm
06:04 AM 34.7°F1.5°C 38.8°F3.8°C 86% 2.0 mph SE3.2 kmh SE 2.0 mph3.2 kmh 29.61 in1002.7 mb 0.00 in0.0 mm 0.00 in0.0 mm 0.00 in0.0 mm
06:02 AM 35.0°F1.7°C 39.1°F3.9°C 86% 3.0 mph SE4.8 kmh SE 3.0 mph4.8 kmh 29.61 in1002.7 mb 0.00 in0.0 mm 0.00 in0.0 mm 0.00 in0.0 mm
06:01 AM 35.0°F1.7°C 39.0°F3.9°C 86% 2.8 mph SE4.5 kmh SE 2.8 mph4.5 kmh 29.61 in1002.7 mb 0.00 in0.0 mm 0.00 in0.0 mm 0.00 in0.0 mm
05:59 AM 34.9°F1.6°C 39.3°F4.1°C 86% 3.0 mph SE4.8 kmh SE 3.0 mph4.8 kmh 29.61 in1002.7 mb 0.00 in0.0 mm 0.00 in0.0 mm 0.00 in0.0 mm
05:58 AM 34.9°F1.6°C 39.0°F3.9°C 86% 2.8 mph SE4.5 kmh SE 2.9 mph4.7 kmh 29.61 in1002.7 mb 0.00 in0.0 mm 0.00 in0.0 mm 0.00 in0.0 mm
05:56 AM 35.2°F1.8°C 39.2°F4.0°C 86% 3.5 mph SE5.6 kmh SE 3.5 mph5.6 kmh 29.61 in1002.7 mb 0.00 in0.0 mm 0.00 in0.0 mm 0.00 in0.0 mm
05:55 AM 35.2°F1.8°C 38.8°F3.8°C 85% 3.6 mph SE5.8 kmh SE 3.6 mph5.8 kmh 29.61 in1002.7 mb 0.00 in0.0 mm 0.00 in0.0 mm 0.00 in0.0 mm
05:53 AM 35.6°F2.0°C 39.4°F4.1°C 86% 3.6 mph SE5.8 kmh SE 3.6 mph5.8 kmh 29.61 in1002.7 mb 0.00 in0.0 mm 0.00 in0.0 mm 0.00 in0.0 mm
05:52 AM 35.6°F2.0°C 39.3°F4.1°C 86% 3.6 mph SE5.8 kmh SE 3.7 mph6.0 kmh 29.61 in1002.7 mb 0.00 in0.0 mm 0.00 in0.0 mm 0.00 in0.0 mm
05:50 AM 35.6°F2.0°C 39.6°F4.2°C 86% 6.0 mph SE9.7 kmh SE 6.0 mph9.7 kmh 29.61 in1002.7 mb 0.00 in0.0 mm 0.00 in0.0 mm 0.00 in0.0 mm
05:49 AM 35.6°F2.0°C 39.5°F4.2°C 86% 6.0 mph SE9.7 kmh SE 6.0 mph9.7 kmh 29.61 in1002.7 mb 0.00 in0.0 mm 0.00 in0.0 mm 0.00 in0.0 mm
05:47 AM 35.6°F2.0°C 39.3°F4.1°C 85% 4.8 mph SE7.7 kmh SE 4.8 mph7.7 kmh 29.61 in1002.7 mb 0.00 in0.0 mm 0.00 in0.0 mm 0.00 in0.0 mm
05:46 AM 35.6°F2.0°C 39.6°F4.2°C 85% 5.2 mph NNW8.4 kmh NNW 5.2 mph8.4 kmh 29.61 in1002.7 mb 0.00 in0.0 mm 0.00 in0.0 mm 0.00 in0.0 mm
05:44 AM 35.8°F2.1°C 39.8°F4.3°C 85% 2.5 mph SSE4.0 kmh SSE 2.7 mph4.3 kmh 29.61 in1002.7 mb 0.00 in0.0 mm 0.00 in0.0 mm 0.00 in0.0 mm
05:43 AM 35.9°F2.2°C 39.8°F4.3°C 85% 2.4 mph SSE3.9 kmh SSE 2.4 mph3.9 kmh 29.61 in1002.7 mb 0.00 in0.0 mm 0.00 in0.0 mm 0.00 in0.0 mm
05:41 AM 36.5°F2.5°C 39.8°F4.3°C 85% 2.2 mph S3.5 kmh S 2.2 mph3.5 kmh 29.61 in1002.7 mb 0.00 in0.0 mm 0.00 in0.0 mm 0.00 in0.0 mm
05:40 AM 36.5°F2.5°C 39.9°F4.4°C 86% 1.6 mph S2.6 kmh S 1.6 mph2.6 kmh 29.61 in1002.7 mb 0.00 in0.0 mm 0.00 in0.0 mm 0.00 in0.0 mm
05:38 AM 36.5°F2.5°C 39.5°F4.2°C 84% 2.5 mph SSE4.0 kmh SSE 2.5 mph4.0 kmh 29.61 in1002.7 mb 0.00 in0.0 mm 0.00 in0.0 mm 0.00 in0.0 mm
05:37 AM 36.5°F2.5°C 39.8°F4.3°C 85% 1.6 mph SSE2.6 kmh SSE 1.6 mph2.6 kmh 29.61 in1002.7 mb 0.00 in0.0 mm 0.00 in0.0 mm 0.00 in0.0 mm
05:35 AM 36.4°F2.4°C 40.0°F4.4°C 85% 0.5 mph SSE0.8 kmh SSE 0.5 mph0.8 kmh 29.61 in1002.7 mb 0.00 in0.0 mm 0.00 in0.0 mm 0.00 in0.0 mm
05:34 AM 36.4°F2.4°C 40.2°F4.6°C 85% 0.8 mph SSE1.3 kmh SSE 0.8 mph1.3 kmh 29.61 in1002.7 mb 0.00 in0.0 mm 0.00 in0.0 mm 0.00 in0.0 mm
05:32 AM 36.5°F2.5°C 40.1°F4.5°C 85% Calm Calm -- 29.61 in1002.7 mb 0.00 in0.0 mm 0.00 in0.0 mm 0.00 in0.0 mm
05:31 AM 36.6°F2.6°C 40.3°F4.6°C 85% Calm Calm -- 29.61 in1002.7 mb 0.00 in0.0 mm 0.00 in0.0 mm 0.00 in0.0 mm
05:29 AM 37.0°F2.8°C 40.5°F4.7°C 85% 1.6 mph SSE2.6 kmh SSE 1.8 mph2.9 kmh 29.60 in1002.4 mb 0.00 in0.0 mm 0.00 in0.0 mm 0.00 in0.0 mm
05:28 AM 37.0°F2.8°C 40.6°F4.8°C 85% 1.6 mph NNW2.6 kmh NNW 1.6 mph2.6 kmh 29.61 in1002.7 mb 0.00 in0.0 mm 0.00 in0.0 mm 0.00 in0.0 mm
05:26 AM 37.4°F3.0°C 40.3°F4.6°C 86% 1.3 mph SSE2.1 kmh SSE 1.3 mph2.1 kmh 29.60 in1002.4 mb 0.00 in0.0 mm 0.00 in0.0 mm 0.00 in0.0 mm
05:25 AM 37.4°F3.0°C 40.5°F4.7°C 85% 1.6 mph SSE2.6 kmh SSE 1.6 mph2.6 kmh 29.61 in1002.7 mb 0.00 in0.0 mm 0.00 in0.0 mm 0.00 in0.0 mm
05:23 AM 37.7°F3.2°C 40.7°F4.8°C 86% 3.4 mph S5.5 kmh S 3.5 mph5.6 kmh 29.60 in1002.4 mb 0.00 in0.0 mm 0.00 in0.0 mm 0.00 in0.0 mm
05:22 AM 37.6°F3.1°C 40.6°F4.8°C 86% 3.2 mph S5.1 kmh S 3.3 mph5.3 kmh 29.60 in1002.4 mb 0.00 in0.0 mm 0.00 in0.0 mm 0.00 in0.0 mm
05:20 AM 38.0°F3.3°C 40.8°F4.9°C 86% 3.0 mph S4.8 kmh S 3.0 mph4.8 kmh 29.61 in1002.7 mb 0.00 in0.0 mm 0.00 in0.0 mm 0.00 in0.0 mm
05:19 AM 38.0°F3.3°C 40.8°F4.9°C 86% 2.4 mph S3.9 kmh S 2.4 mph3.9 kmh 29.60 in1002.4 mb 0.00 in0.0 mm 0.00 in0.0 mm 0.00 in0.0 mm
05:17 AM 38.0°F3.3°C 40.8°F4.9°C 85% 1.4 mph SSW2.3 kmh SSW 1.4 mph2.3 kmh 29.60 in1002.4 mb 0.00 in0.0 mm 0.00 in0.0 mm 0.00 in0.0 mm
05:16 AM 38.0°F3.3°C 40.8°F4.9°C 86% 0.8 mph SSW1.3 kmh SSW 0.8 mph1.3 kmh 29.60 in1002.4 mb 0.00 in0.0 mm 0.00 in0.0 mm 0.00 in0.0 mm
05:14 AM 38.0°F3.3°C 41.0°F5.0°C 86% 2.0 mph SSW3.2 kmh SSW 2.0 mph3.2 kmh 29.61 in1002.7 mb 0.00 in0.0 mm 0.00 in0.0 mm 0.00 in0.0 mm
05:13 AM 38.0°F3.3°C 41.0°F5.0°C 86% 2.4 mph SSW3.9 kmh SSW 2.4 mph3.9 kmh 29.61 in1002.7 mb 0.00 in0.0 mm 0.00 in0.0 mm 0.00 in0.0 mm
05:11 AM 38.0°F3.3°C 41.0°F5.0°C 85% Calm Calm -- 29.60 in1002.4 mb 0.00 in0.0 mm 0.00 in0.0 mm 0.00 in0.0 mm
05:10 AM 37.9°F3.3°C 41.0°F5.0°C 85% Calm Calm -- 29.60 in1002.4 mb 0.00 in0.0 mm 0.00 in0.0 mm 0.00 in0.0 mm
05:08 AM 38.0°F3.3°C 40.6°F4.8°C 84% Calm Calm -- 29.61 in1002.7 mb 0.00 in0.0 mm 0.00 in0.0 mm 0.00 in0.0 mm
05:07 AM 37.9°F3.3°C 40.8°F4.9°C 85% Calm Calm -- 29.61 in1002.7 mb 0.00 in0.0 mm 0.00 in0.0 mm 0.00 in0.0 mm
05:05 AM 38.0°F3.3°C 40.7°F4.8°C 85% Calm Calm -- 29.60 in1002.4 mb 0.00 in0.0 mm 0.00 in0.0 mm 0.00 in0.0 mm
05:04 AM 38.0°F3.3°C 40.9°F4.9°C 85% Calm Calm -- 29.60 in1002.4 mb 0.00 in0.0 mm 0.00 in0.0 mm 0.00 in0.0 mm
05:02 AM 37.9°F3.3°C 40.7°F4.8°C 85% Calm Calm -- 29.61 in1002.7 mb 0.00 in0.0 mm 0.00 in0.0 mm 0.00 in0.0 mm
05:01 AM 37.9°F3.3°C 40.8°F4.9°C 85% Calm Calm -- 29.60 in1002.4 mb 0.00 in0.0 mm 0.00 in0.0 mm 0.00 in0.0 mm
04:59 AM 37.9°F3.3°C 41.0°F5.0°C 85% Calm Calm -- 29.60 in1002.4 mb 0.00 in0.0 mm 0.00 in0.0 mm 0.00 in0.0 mm
04:58 AM 37.9°F3.3°C 40.9°F4.9°C 85% Calm Calm -- 29.60 in1002.4 mb 0.00 in0.0 mm 0.00 in0.0 mm 0.00 in0.0 mm
04:56 AM 37.7°F3.2°C 40.9°F4.9°C 85% Calm Calm -- 29.60 in1002.4 mb 0.00 in0.0 mm 0.00 in0.0 mm 0.00 in0.0 mm
04:55 AM 37.7°F3.2°C 41.0°F5.0°C 85% Calm Calm -- 29.60 in1002.4 mb 0.00 in0.0 mm 0.00 in0.0 mm 0.00 in0.0 mm
04:53 AM 37.9°F3.3°C 40.9°F4.9°C 85% Calm Calm -- 29.60 in1002.4 mb 0.00 in0.0 mm 0.00 in0.0 mm 0.00 in0.0 mm
04:52 AM 37.9°F3.3°C 41.1°F5.1°C 85% Calm Calm -- 29.60 in1002.4 mb 0.00 in0.0 mm 0.00 in0.0 mm 0.00 in0.0 mm
04:50 AM 38.1°F3.4°C 41.1°F5.1°C 85% Calm Calm -- 29.60 in1002.4 mb 0.00 in0.0 mm 0.00 in0.0 mm 0.00 in0.0 mm
04:49 AM 38.1°F3.4°C 40.9°F4.9°C 85% Calm Calm -- 29.60 in1002.4 mb 0.00 in0.0 mm 0.00 in0.0 mm 0.00 in0.0 mm
04:47 AM 38.1°F3.4°C 41.0°F5.0°C 85% Calm Calm -- 29.60 in1002.4 mb 0.00 in0.0 mm 0.00 in0.0 mm 0.00 in0.0 mm
04:46 AM 38.1°F3.4°C 40.9°F4.9°C 85% Calm Calm -- 29.60 in1002.4 mb 0.00 in0.0 mm 0.00 in0.0 mm 0.00 in0.0 mm
04:44 AM 38.1°F3.4°C 40.8°F4.9°C 85% Calm Calm -- 29.60 in1002.4 mb 0.00 in0.0 mm 0.00 in0.0 mm 0.00 in0.0 mm
04:43 AM 38.1°F3.4°C 40.9°F4.9°C 85% Calm Calm -- 29.60 in1002.4 mb 0.00 in0.0 mm 0.00 in0.0 mm 0.00 in0.0 mm
04:41 AM 38.0°F3.3°C 40.9°F4.9°C 85% Calm Calm -- 29.60 in1002.4 mb 0.00 in0.0 mm 0.00 in0.0 mm 0.00 in0.0 mm
04:40 AM 38.0°F3.3°C 40.9°F4.9°C 85% Calm Calm -- 29.60 in1002.4 mb 0.00 in0.0 mm 0.00 in0.0 mm 0.00 in0.0 mm
04:38 AM 38.1°F3.4°C 41.1°F5.1°C 85% Calm Calm -- 29.60 in1002.4 mb 0.00 in0.0 mm 0.00 in0.0 mm 0.00 in0.0 mm
04:37 AM 38.1°F3.4°C 40.7°F4.8°C 85% Calm Calm -- 29.60 in1002.4 mb 0.00 in0.0 mm 0.00 in0.0 mm 0.00 in0.0 mm
04:35 AM 38.1°F3.4°C 40.8°F4.9°C 86% Calm Calm -- 29.60 in1002.4 mb 0.00 in0.0 mm 0.00 in0.0 mm 0.00 in0.0 mm
04:34 AM 38.0°F3.3°C 41.0°F5.0°C 85% Calm Calm -- 29.60 in1002.4 mb 0.00 in0.0 mm 0.00 in0.0 mm 0.00 in0.0 mm
04:32 AM 38.1°F3.4°C 40.9°F4.9°C 86% Calm Calm -- 29.60 in1002.4 mb 0.00 in0.0 mm 0.00 in0.0 mm 0.00 in0.0 mm
04:31 AM 38.0°F3.3°C 41.1°F5.1°C 86% Calm Calm -- 29.60 in1002.4 mb 0.00 in0.0 mm 0.00 in0.0 mm 0.00 in0.0 mm
04:29 AM 38.1°F3.4°C 41.0°F5.0°C 85% Calm Calm -- 29.60 in1002.4 mb 0.00 in0.0 mm 0.00 in0.0 mm 0.00 in0.0 mm
04:28 AM 38.1°F3.4°C 41.1°F5.1°C 85% Calm Calm -- 29.60 in1002.4 mb 0.00 in0.0 mm 0.00 in0.0 mm 0.00 in0.0 mm
04:26 AM 38.2°F3.4°C 41.1°F5.1°C 85% Calm Calm -- 29.60 in1002.4 mb 0.00 in0.0 mm 0.00 in0.0 mm 0.00 in0.0 mm
04:25 AM 38.2°F3.4°C 40.8°F4.9°C 84% Calm Calm -- 29.59 in1002.0 mb 0.00 in0.0 mm 0.00 in0.0 mm 0.00 in0.0 mm
04:23 AM 38.2°F3.4°C 41.0°F5.0°C 85% Calm Calm -- 29.59 in1002.0 mb 0.00 in0.0 mm 0.00 in0.0 mm 0.00 in0.0 mm
04:22 AM 38.1°F3.4°C 41.0°F5.0°C 85% Calm Calm -- 29.60 in1002.4 mb 0.00 in0.0 mm 0.00 in0.0 mm 0.00 in0.0 mm
04:20 AM 38.2°F3.4°C 41.2°F5.1°C 86% Calm Calm -- 29.59 in1002.0 mb 0.00 in0.0 mm 0.00 in0.0 mm 0.00 in0.0 mm
04:19 AM 38.2°F3.4°C 40.7°F4.8°C 85% Calm Calm -- 29.60 in1002.4 mb 0.00 in0.0 mm 0.00 in0.0 mm 0.00 in0.0 mm
04:17 AM 38.2°F3.4°C 40.7°F4.8°C 85% Calm Calm -- 29.59 in1002.0 mb 0.00 in0.0 mm 0.00 in0.0 mm 0.00 in0.0 mm
04:16 AM 38.2°F3.4°C 40.9°F4.9°C 85% Calm Calm -- 29.59 in1002.0 mb 0.00 in0.0 mm 0.00 in0.0 mm 0.00 in0.0 mm
04:14 AM 38.2°F3.4°C 40.9°F4.9°C 85% Calm Calm -- 29.59 in1002.0 mb 0.00 in0.0 mm 0.00 in0.0 mm 0.00 in0.0 mm
04:13 AM 38.2°F3.4°C 40.9°F4.9°C 85% Calm Calm -- 29.60 in1002.4 mb 0.00 in0.0 mm 0.00 in0.0 mm 0.00 in0.0 mm
04:11 AM 38.2°F3.4°C 40.8°F4.9°C 85% Calm Calm -- 29.59 in1002.0 mb 0.00 in0.0 mm 0.00 in0.0 mm 0.00 in0.0 mm
04:10 AM 38.2°F3.4°C 41.1°F5.1°C 86% Calm Calm -- 29.59 in1002.0 mb 0.00 in0.0 mm 0.00 in0.0 mm 0.00 in0.0 mm
04:08 AM 38.2°F3.4°C 40.9°F4.9°C 86% Calm Calm -- 29.59 in1002.0 mb 0.00 in0.0 mm 0.00 in0.0 mm 0.00 in0.0 mm
04:07 AM 38.2°F3.4°C 41.0°F5.0°C 85% Calm Calm -- 29.60 in1002.4 mb 0.00 in0.0 mm 0.00 in0.0 mm 0.00 in0.0 mm
04:05 AM 38.3°F3.5°C 41.0°F5.0°C 86% Calm Calm -- 29.59 in1002.0 mb 0.00 in0.0 mm 0.00 in0.0 mm 0.00 in0.0 mm
04:04 AM 38.2°F3.4°C 41.0°F5.0°C 85% Calm Calm -- 29.60 in1002.4 mb 0.00 in0.0 mm 0.00 in0.0 mm 0.00 in0.0 mm
04:02 AM 38.3°F3.5°C 40.8°F4.9°C 85% Calm Calm -- 29.60 in1002.4 mb 0.00 in0.0 mm 0.00 in0.0 mm 0.00 in0.0 mm
04:01 AM 38.3°F3.5°C 40.9°F4.9°C 85% Calm Calm -- 29.60 in1002.4 mb 0.00 in0.0 mm 0.00 in0.0 mm 0.00 in0.0 mm
03:59 AM 38.3°F3.5°C 41.1°F5.1°C 86% Calm Calm -- 29.60 in1002.4 mb 0.00 in0.0 mm 0.00 in0.0 mm 0.00 in0.0 mm
03:58 AM 38.3°F3.5°C 40.6°F4.8°C 84% Calm Calm -- 29.60 in1002.4 mb 0.00 in0.0 mm 0.00 in0.0 mm 0.00 in0.0 mm
03:56 AM 38.3°F3.5°C 40.7°F4.8°C 85% Calm Calm -- 29.60 in1002.4 mb 0.00 in0.0 mm 0.00 in0.0 mm 0.00 in0.0 mm
03:55 AM 38.3°F3.5°C 41.0°F5.0°C 85% Calm Calm -- 29.60 in1002.4 mb 0.00 in0.0 mm 0.00 in0.0 mm 0.00 in0.0 mm
03:53 AM 38.3°F3.5°C 40.7°F4.8°C 85% 0.7 mph SSW1.1 kmh SSW 0.8 mph1.3 kmh 29.60 in1002.4 mb 0.00 in0.0 mm 0.00 in0.0 mm 0.00 in0.0 mm
03:52 AM 38.3°F3.5°C 41.1°F5.1°C 85% 0.8 mph SSW1.3 kmh SSW 0.8 mph1.3 kmh 29.59 in1002.0 mb 0.00 in0.0 mm 0.00 in0.0 mm 0.00 in0.0 mm
03:49 AM 38.3°F3.5°C 40.9°F4.9°C 85% 1.2 mph NNW1.9 kmh NNW 1.2 mph1.9 kmh 29.60 in1002.4 mb 0.00 in0.0 mm 0.00 in0.0 mm 0.00 in0.0 mm
03:47 AM 38.3°F3.5°C 40.9°F4.9°C 85% Calm Calm -- 29.60 in1002.4 mb 0.00 in0.0 mm 0.00 in0.0 mm 0.00 in0.0 mm
03:46 AM 38.3°F3.5°C 40.9°F4.9°C 85% Calm Calm -- 29.60 in1002.4 mb 0.00 in0.0 mm 0.00 in0.0 mm 0.00 in0.0 mm
03:44 AM 38.3°F3.5°C 41.0°F5.0°C 85% Calm Calm -- 29.60 in1002.4 mb 0.00 in0.0 mm 0.00 in0.0 mm 0.00 in0.0 mm
03:43 AM 38.3°F3.5°C 41.0°F5.0°C 85% Calm Calm -- 29.60 in1002.4 mb 0.00 in0.0 mm 0.00 in0.0 mm 0.00 in0.0 mm
03:41 AM 38.3°F3.5°C 41.1°F5.1°C 85% Calm Calm -- 29.60 in1002.4 mb 0.00 in0.0 mm 0.00 in0.0 mm 0.00 in0.0 mm
03:40 AM 38.3°F3.5°C 41.1°F5.1°C 85% Calm Calm -- 29.60 in1002.4 mb 0.00 in0.0 mm 0.00 in0.0 mm 0.00 in0.0 mm
03:38 AM 38.3°F3.5°C 41.0°F5.0°C 85% Calm Calm -- 29.60 in1002.4 mb 0.00 in0.0 mm 0.00 in0.0 mm 0.00 in0.0 mm
03:37 AM 38.3°F3.5°C 41.1°F5.1°C 85% Calm Calm -- 29.60 in1002.4 mb 0.00 in0.0 mm 0.00 in0.0 mm 0.00 in0.0 mm
03:35 AM 38.3°F3.5°C 41.0°F5.0°C 85% 0.9 mph SSW1.4 kmh SSW 0.9 mph1.4 kmh 29.60 in1002.4 mb 0.00 in0.0 mm 0.00 in0.0 mm 0.00 in0.0 mm
03:34 AM 38.2°F3.4°C 40.8°F4.9°C 85% 1.2 mph SSW1.9 kmh SSW 1.2 mph1.9 kmh 29.61 in1002.7 mb 0.00 in0.0 mm 0.00 in0.0 mm 0.00 in0.0 mm
03:32 AM 38.2°F3.4°C 41.1°F5.1°C 85% Calm Calm -- 29.60 in1002.4 mb 0.00 in0.0 mm 0.00 in0.0 mm 0.00 in0.0 mm
03:31 AM 38.3°F3.5°C 41.0°F5.0°C 85% Calm Calm -- 29.61 in1002.7 mb 0.00 in0.0 mm 0.00 in0.0 mm 0.00 in0.0 mm
03:29 AM 38.3°F3.5°C 41.0°F5.0°C 85% Calm Calm -- 29.60 in1002.4 mb 0.00 in0.0 mm 0.00 in0.0 mm 0.00 in0.0 mm
03:28 AM 38.3°F3.5°C 41.1°F5.1°C 85% Calm Calm -- 29.60 in1002.4 mb 0.00 in0.0 mm 0.00 in0.0 mm 0.00 in0.0 mm
03:23 AM 38.3°F3.5°C 41.0°F5.0°C 85% Calm Calm -- 29.61 in1002.7 mb 0.00 in0.0 mm 0.00 in0.0 mm 0.00 in0.0 mm
03:22 AM 38.3°F3.5°C 40.9°F4.9°C 85% Calm Calm -- 29.61 in1002.7 mb 0.00 in0.0 mm 0.00 in0.0 mm 0.00 in0.0 mm
03:20 AM 38.3°F3.5°C 40.8°F4.9°C 84% Calm Calm -- 29.60 in1002.4 mb 0.00 in0.0 mm 0.00 in0.0 mm 0.00 in0.0 mm
03:19 AM 38.3°F3.5°C 41.0°F5.0°C 85% Calm Calm -- 29.60 in1002.4 mb 0.00 in0.0 mm 0.00 in0.0 mm 0.00 in0.0 mm
03:17 AM 38.3°F3.5°C 40.8°F4.9°C 85% Calm Calm -- 29.61 in1002.7 mb 0.00 in0.0 mm 0.00 in0.0 mm 0.00 in0.0 mm
03:16 AM 38.3°F3.5°C 41.0°F5.0°C 85% Calm Calm -- 29.60 in1002.4 mb 0.00 in0.0 mm 0.00 in0.0 mm 0.00 in0.0 mm
03:14 AM 38.3°F3.5°C 40.6°F4.8°C 84% Calm Calm -- 29.61 in1002.7 mb 0.00 in0.0 mm 0.00 in0.0 mm 0.00 in0.0 mm
03:13 AM 38.3°F3.5°C 40.9°F4.9°C 85% Calm Calm -- 29.61 in1002.7 mb 0.00 in0.0 mm 0.00 in0.0 mm 0.00 in0.0 mm
03:11 AM 38.3°F3.5°C 41.0°F5.0°C 85% Calm Calm -- 29.61 in1002.7 mb 0.00 in0.0 mm 0.00 in0.0 mm 0.00 in0.0 mm
03:10 AM 38.3°F3.5°C 41.1°F5.1°C 85% Calm Calm -- 29.61 in1002.7 mb 0.00 in0.0 mm 0.00 in0.0 mm 0.00 in0.0 mm
03:08 AM 38.3°F3.5°C 40.9°F4.9°C 85% Calm Calm -- 29.61 in1002.7 mb 0.00 in0.0 mm 0.00 in0.0 mm 0.00 in0.0 mm
03:07 AM 38.3°F3.5°C 40.9°F4.9°C 84% Calm Calm -- 29.61 in1002.7 mb 0.00 in0.0 mm 0.00 in0.0 mm 0.00 in0.0 mm
03:05 AM 38.3°F3.5°C 40.8°F4.9°C 84% Calm Calm -- 29.61 in1002.7 mb 0.00 in0.0 mm 0.00 in0.0 mm 0.00 in0.0 mm
03:04 AM 38.3°F3.5°C 40.8°F4.9°C 85% Calm Calm -- 29.61 in1002.7 mb 0.00 in0.0 mm 0.00 in0.0 mm 0.00 in0.0 mm
03:02 AM 38.3°F3.5°C 40.7°F4.8°C 84% Calm Calm -- 29.61 in1002.7 mb 0.00 in0.0 mm 0.00 in0.0 mm 0.00 in0.0 mm
03:01 AM 38.3°F3.5°C 41.0°F5.0°C 85% Calm Calm -- 29.60 in1002.4 mb 0.00 in0.0 mm 0.00 in0.0 mm 0.00 in0.0 mm
02:59 AM 38.3°F3.5°C 40.7°F4.8°C 84% Calm Calm -- 29.60 in1002.4 mb 0.00 in0.0 mm 0.00 in0.0 mm 0.00 in0.0 mm
02:58 AM 38.3°F3.5°C 40.9°F4.9°C 85% Calm Calm -- 29.61 in1002.7 mb 0.00 in0.0 mm 0.00 in0.0 mm 0.00 in0.0 mm
02:56 AM 38.3°F3.5°C 41.0°F5.0°C 85% Calm Calm -- 29.61 in1002.7 mb 0.00 in0.0 mm 0.00 in0.0 mm 0.00 in0.0 mm
02:55 AM 38.3°F3.5°C 41.0°F5.0°C 85% Calm Calm -- 29.61 in1002.7 mb 0.00 in0.0 mm 0.00 in0.0 mm 0.00 in0.0 mm
02:53 AM 38.3°F3.5°C 40.9°F4.9°C 85% Calm Calm -- 29.61 in1002.7 mb 0.00 in0.0 mm 0.00 in0.0 mm 0.00 in0.0 mm
02:52 AM 38.3°F3.5°C 40.9°F4.9°C 85% Calm Calm -- 29.61 in1002.7 mb 0.00 in0.0 mm 0.00 in0.0 mm 0.00 in0.0 mm
02:50 AM 38.4°F3.6°C 40.9°F4.9°C 85% Calm Calm -- 29.61 in1002.7 mb 0.00 in0.0 mm 0.00 in0.0 mm 0.00 in0.0 mm
02:49 AM 38.3°F3.5°C 40.9°F4.9°C 85% Calm Calm -- 29.61 in1002.7 mb 0.00 in0.0 mm 0.00 in0.0 mm 0.00 in0.0 mm
02:47 AM 38.3°F3.5°C 40.7°F4.8°C 85% Calm Calm -- 29.61 in1002.7 mb 0.00 in0.0 mm 0.00 in0.0 mm 0.00 in0.0 mm
02:46 AM 38.3°F3.5°C 40.9°F4.9°C 85% Calm Calm -- 29.61 in1002.7 mb 0.00 in0.0 mm 0.00 in0.0 mm 0.00 in0.0 mm
02:44 AM 38.4°F3.6°C 40.8°F4.9°C 85% 2.3 mph SW3.7 kmh SW 2.5 mph4.0 kmh 29.61 in1002.7 mb 0.00 in0.0 mm 0.00 in0.0 mm 0.00 in0.0 mm
02:43 AM 38.4°F3.6°C 40.8°F4.9°C 85% 2.4 mph SW3.9 kmh SW 2.4 mph3.9 kmh 29.61 in1002.7 mb 0.00 in0.0 mm 0.00 in0.0 mm 0.00 in0.0 mm
02:41 AM 38.3°F3.5°C 40.9°F4.9°C 85% Calm Calm -- 29.61 in1002.7 mb 0.00 in0.0 mm 0.00 in0.0 mm 0.00 in0.0 mm
02:40 AM 38.3°F3.5°C 40.9°F4.9°C 85% Calm Calm -- 29.61 in1002.7 mb 0.00 in0.0 mm 0.00 in0.0 mm 0.00 in0.0 mm
02:38 AM 38.3°F3.5°C 41.0°F5.0°C 85% Calm Calm -- 29.61 in1002.7 mb 0.00 in0.0 mm 0.00 in0.0 mm 0.00 in0.0 mm
02:37 AM 38.3°F3.5°C 41.0°F5.0°C 85% Calm Calm -- 29.61 in1002.7 mb 0.00 in0.0 mm 0.00 in0.0 mm 0.00 in0.0 mm
02:35 AM 38.3°F3.5°C 41.0°F5.0°C 85% Calm Calm -- 29.61 in1002.7 mb 0.00 in0.0 mm 0.00 in0.0 mm 0.00 in0.0 mm
02:34 AM 38.3°F3.5°C 40.8°F4.9°C 85% Calm Calm -- 29.61 in1002.7 mb 0.00 in0.0 mm 0.00 in0.0 mm 0.00 in0.0 mm
02:32 AM 38.4°F3.6°C 40.8°F4.9°C 85% Calm Calm -- 29.61 in1002.7 mb 0.00 in0.0 mm 0.00 in0.0 mm 0.00 in0.0 mm
02:31 AM 38.4°F3.6°C 40.7°F4.8°C 84% Calm Calm -- 29.61 in1002.7 mb 0.00 in0.0 mm 0.00 in0.0 mm 0.00 in0.0 mm
02:29 AM 38.3°F3.5°C 40.9°F4.9°C 84% 1.4 mph SW2.3 kmh SW 1.5 mph2.4 kmh 29.61 in1002.7 mb 0.00 in0.0 mm 0.00 in0.0 mm 0.00 in0.0 mm
02:28 AM 38.3°F3.5°C 40.9°F4.9°C 85% 2.0 mph SW3.2 kmh SW 2.0 mph3.2 kmh 29.61 in1002.7 mb 0.00 in0.0 mm 0.00 in0.0 mm 0.00 in0.0 mm
02:26 AM 38.3°F3.5°C 40.9°F4.9°C 85% 0.2 mph SW0.3 kmh SW 0.3 mph0.5 kmh 29.61 in1002.7 mb 0.00 in0.0 mm 0.00 in0.0 mm 0.00 in0.0 mm
02:25 AM 38.3°F3.5°C 40.7°F4.8°C 84% Calm Calm -- 29.61 in1002.7 mb 0.00 in0.0 mm 0.00 in0.0 mm 0.00 in0.0 mm
02:23 AM 38.3°F3.5°C 40.9°F4.9°C 85% 0.2 mph SW0.3 kmh SW 0.2 mph0.3 kmh 29.61 in1002.7 mb 0.00 in0.0 mm 0.00 in0.0 mm 0.00 in0.0 mm
02:22 AM 38.3°F3.5°C 40.9°F4.9°C 84% Calm Calm -- 29.61 in1002.7 mb 0.00 in0.0 mm 0.00 in0.0 mm 0.00 in0.0 mm
02:20 AM 38.3°F3.5°C 41.0°F5.0°C 85% Calm Calm -- 29.61 in1002.7 mb 0.00 in0.0 mm 0.00 in0.0 mm 0.00 in0.0 mm
02:19 AM 38.3°F3.5°C 41.0°F5.0°C 85% Calm Calm -- 29.61 in1002.7 mb 0.00 in0.0 mm 0.00 in0.0 mm 0.00 in0.0 mm
02:17 AM 38.3°F3.5°C 41.1°F5.1°C 85% Calm Calm -- 29.61 in1002.7 mb 0.00 in0.0 mm 0.00 in0.0 mm 0.00 in0.0 mm
02:16 AM 38.3°F3.5°C 40.7°F4.8°C 84% Calm Calm -- 29.61 in1002.7 mb 0.00 in0.0 mm 0.00 in0.0 mm 0.00 in0.0 mm
02:14 AM 38.3°F3.5°C 40.8°F4.9°C 84% Calm Calm -- 29.61 in1002.7 mb 0.00 in0.0 mm 0.00 in0.0 mm 0.00 in0.0 mm
02:13 AM 38.3°F3.5°C 41.0°F5.0°C 85% Calm Calm -- 29.61 in1002.7 mb 0.00 in0.0 mm 0.00 in0.0 mm 0.00 in0.0 mm
02:11 AM 38.3°F3.5°C 40.8°F4.9°C 84% Calm Calm -- 29.61 in1002.7 mb 0.00 in0.0 mm 0.00 in0.0 mm 0.00 in0.0 mm
02:10 AM 38.3°F3.5°C 40.9°F4.9°C 85% Calm Calm -- 29.61 in1002.7 mb 0.00 in0.0 mm 0.00 in0.0 mm 0.00 in0.0 mm
02:08 AM 38.3°F3.5°C 41.0°F5.0°C 85% Calm Calm -- 29.61 in1002.7 mb 0.00 in0.0 mm 0.00 in0.0 mm 0.00 in0.0 mm
02:07 AM 38.2°F3.4°C 41.1°F5.1°C 85% Calm Calm -- 29.61 in1002.7 mb 0.00 in0.0 mm 0.00 in0.0 mm 0.00 in0.0 mm
02:05 AM 38.2°F3.4°C 41.0°F5.0°C 84% Calm Calm -- 29.61 in1002.7 mb 0.00 in0.0 mm 0.00 in0.0 mm 0.00 in0.0 mm
02:04 AM 38.2°F3.4°C 41.1°F5.1°C 85% Calm Calm -- 29.61 in1002.7 mb 0.00 in0.0 mm 0.00 in0.0 mm 0.00 in0.0 mm
02:02 AM 38.3°F3.5°C 41.0°F5.0°C 84% Calm Calm -- 29.61 in1002.7 mb 0.00 in0.0 mm 0.00 in0.0 mm 0.00 in0.0 mm
02:01 AM 38.2°F3.4°C 40.8°F4.9°C 84% Calm Calm -- 29.61 in1002.7 mb 0.00 in0.0 mm 0.00 in0.0 mm 0.00 in0.0 mm
01:59 AM 38.2°F3.4°C 41.0°F5.0°C 84% Calm Calm -- 29.61 in1002.7 mb 0.00 in0.0 mm 0.00 in0.0 mm 0.00 in0.0 mm
01:58 AM 38.2°F3.4°C 40.9°F4.9°C 84% Calm Calm -- 29.61 in1002.7 mb 0.00 in0.0 mm 0.00 in0.0 mm 0.00 in0.0 mm
01:56 AM 38.2°F3.4°C 40.8°F4.9°C 84% Calm Calm -- 29.61 in1002.7 mb 0.00 in0.0 mm 0.00 in0.0 mm 0.00 in0.0 mm
01:55 AM 38.2°F3.4°C 41.0°F5.0°C 84% Calm Calm -- 29.61 in1002.7 mb 0.00 in0.0 mm 0.00 in0.0 mm 0.00 in0.0 mm
01:53 AM 38.2°F3.4°C 41.0°F5.0°C 84% Calm Calm -- 29.61 in1002.7 mb 0.00 in0.0 mm 0.00 in0.0 mm 0.00 in0.0 mm
01:52 AM 38.2°F3.4°C 41.0°F5.0°C 84% Calm Calm -- 29.61 in1002.7 mb 0.00 in0.0 mm 0.00 in0.0 mm 0.00 in0.0 mm
01:50 AM 38.2°F3.4°C 41.0°F5.0°C 85% Calm Calm -- 29.61 in1002.7 mb 0.00 in0.0 mm 0.00 in0.0 mm 0.00 in0.0 mm
01:49 AM 38.2°F3.4°C 40.9°F4.9°C 84% Calm Calm -- 29.61 in1002.7 mb 0.00 in0.0 mm 0.00 in0.0 mm 0.00 in0.0 mm
01:47 AM 38.2°F3.4°C 40.9°F4.9°C 84% Calm Calm -- 29.61 in1002.7 mb 0.00 in0.0 mm 0.00 in0.0 mm 0.00 in0.0 mm
01:46 AM 38.2°F3.4°C 41.0°F5.0°C 84% Calm Calm -- 29.61 in1002.7 mb 0.00 in0.0 mm 0.00 in0.0 mm 0.00 in0.0 mm
01:44 AM 38.2°F3.4°C 40.9°F4.9°C 84% Calm Calm -- 29.61 in1002.7 mb 0.00 in0.0 mm 0.00 in0.0 mm 0.00 in0.0 mm
01:43 AM 38.2°F3.4°C 40.7°F4.8°C 84% Calm Calm -- 29.61 in1002.7 mb 0.00 in0.0 mm 0.00 in0.0 mm 0.00 in0.0 mm
01:41 AM 38.2°F3.4°C 40.7°F4.8°C 84% Calm Calm -- 29.61 in1002.7 mb 0.00 in0.0 mm 0.00 in0.0 mm 0.00 in0.0 mm
01:40 AM 38.2°F3.4°C 41.0°F5.0°C 84% Calm Calm -- 29.61 in1002.7 mb 0.00 in0.0 mm 0.00 in0.0 mm 0.00 in0.0 mm
01:38 AM 38.3°F3.5°C 40.9°F4.9°C 84% Calm Calm -- 29.61 in1002.7 mb 0.00 in0.0 mm 0.00 in0.0 mm 0.00 in0.0 mm
01:37 AM 38.3°F3.5°C 41.1°F5.1°C 84% Calm Calm -- 29.61 in1002.7 mb 0.00 in0.0 mm 0.00 in0.0 mm 0.00 in0.0 mm
01:35 AM 38.2°F3.4°C 40.9°F4.9°C 84% Calm Calm -- 29.61 in1002.7 mb 0.00 in0.0 mm 0.00 in0.0 mm 0.00 in0.0 mm
01:34 AM 38.3°F3.5°C 40.8°F4.9°C 84% Calm Calm -- 29.61 in1002.7 mb 0.00 in0.0 mm 0.00 in0.0 mm 0.00 in0.0 mm
01:32 AM 38.3°F3.5°C 40.9°F4.9°C 85% Calm Calm -- 29.61 in1002.7 mb 0.00 in0.0 mm 0.00 in0.0 mm 0.00 in0.0 mm
01:31 AM 38.2°F3.4°C 40.5°F4.7°C 84% Calm Calm -- 29.61 in1002.7 mb 0.00 in0.0 mm 0.00 in0.0 mm 0.00 in0.0 mm
01:29 AM 38.3°F3.5°C 40.9°F4.9°C 84% Calm Calm -- 29.61 in1002.7 mb 0.00 in0.0 mm 0.00 in0.0 mm 0.00 in0.0 mm
01:28 AM 38.3°F3.5°C 40.7°F4.8°C 83% Calm Calm -- 29.61 in1002.7 mb 0.00 in0.0 mm 0.00 in0.0 mm 0.00 in0.0 mm
01:26 AM 38.3°F3.5°C 41.0°F5.0°C 85% Calm Calm -- 29.61 in1002.7 mb 0.00 in0.0 mm 0.00 in0.0 mm 0.00 in0.0 mm
01:25 AM 38.3°F3.5°C 40.8°F4.9°C 84% Calm Calm -- 29.61 in1002.7 mb 0.00 in0.0 mm 0.00 in0.0 mm 0.00 in0.0 mm
01:23 AM 38.3°F3.5°C 40.9°F4.9°C 84% Calm Calm -- 29.61 in1002.7 mb 0.00 in0.0 mm 0.00 in0.0 mm 0.00 in0.0 mm
01:22 AM 38.3°F3.5°C 40.9°F4.9°C 84% Calm Calm -- 29.61 in1002.7 mb 0.00 in0.0 mm 0.00 in0.0 mm 0.00 in0.0 mm
01:20 AM 38.3°F3.5°C 40.8°F4.9°C 84% Calm Calm -- 29.61 in1002.7 mb 0.00 in0.0 mm 0.00 in0.0 mm 0.00 in0.0 mm
01:19 AM 38.3°F3.5°C 40.9°F4.9°C 84% Calm Calm -- 29.61 in1002.7 mb 0.00 in0.0 mm 0.00 in0.0 mm 0.00 in0.0 mm
01:17 AM 38.3°F3.5°C 40.9°F4.9°C 84% Calm Calm -- 29.61 in1002.7 mb 0.00 in0.0 mm 0.00 in0.0 mm 0.00 in0.0 mm
01:16 AM 38.3°F3.5°C 40.8°F4.9°C 85% Calm Calm -- 29.61 in1002.7 mb 0.00 in0.0 mm 0.00 in0.0 mm 0.00 in0.0 mm
01:14 AM 38.3°F3.5°C 40.8°F4.9°C 84% Calm Calm -- 29.61 in1002.7 mb 0.00 in0.0 mm 0.00 in0.0 mm 0.00 in0.0 mm
01:13 AM 38.3°F3.5°C 41.0°F5.0°C 84% Calm Calm -- 29.61 in1002.7 mb 0.00 in0.0 mm 0.00 in0.0 mm 0.00 in0.0 mm
01:11 AM 38.3°F3.5°C 40.5°F4.7°C 84% Calm Calm -- 29.61 in1002.7 mb 0.00 in0.0 mm 0.00 in0.0 mm 0.00 in0.0 mm
01:10 AM 38.3°F3.5°C 40.8°F4.9°C 84% Calm Calm -- 29.61 in1002.7 mb 0.00 in0.0 mm 0.00 in0.0 mm 0.00 in0.0 mm
01:08 AM 38.3°F3.5°C 40.9°F4.9°C 84% Calm Calm -- 29.61 in1002.7 mb 0.00 in0.0 mm 0.00 in0.0 mm 0.00 in0.0 mm
01:07 AM 38.3°F3.5°C 40.8°F4.9°C 85% Calm Calm -- 29.61 in1002.7 mb 0.00 in0.0 mm 0.00 in0.0 mm 0.00 in0.0 mm
01:05 AM 38.3°F3.5°C 40.9°F4.9°C 85% Calm Calm -- 29.61 in1002.7 mb 0.00 in0.0 mm 0.00 in0.0 mm 0.00 in0.0 mm
01:04 AM 38.3°F3.5°C 40.9°F4.9°C 84% Calm Calm -- 29.61 in1002.7 mb 0.00 in0.0 mm 0.00 in0.0 mm 0.00 in0.0 mm
01:02 AM 38.3°F3.5°C 41.0°F5.0°C 84% Calm Calm -- 29.61 in1002.7 mb 0.00 in0.0 mm 0.00 in0.0 mm 0.00 in0.0 mm
01:01 AM 38.3°F3.5°C 40.8°F4.9°C 85% Calm Calm -- 29.61 in1002.7 mb 0.00 in0.0 mm 0.00 in0.0 mm 0.00 in0.0 mm
12:59 AM 38.3°F3.5°C 41.0°F5.0°C 84% Calm Calm -- 29.61 in1002.7 mb 0.00 in0.0 mm 0.00 in0.0 mm 0.00 in0.0 mm
12:58 AM 38.3°F3.5°C 40.9°F4.9°C 84% Calm Calm -- 29.61 in1002.7 mb 0.00 in0.0 mm 0.00 in0.0 mm 0.00 in0.0 mm
12:56 AM 38.3°F3.5°C 41.0°F5.0°C 84% Calm Calm -- 29.61 in1002.7 mb 0.00 in0.0 mm 0.00 in0.0 mm 0.00 in0.0 mm
12:55 AM 38.3°F3.5°C 40.9°F4.9°C 84% Calm Calm -- 29.61 in1002.7 mb 0.00 in0.0 mm 0.00 in0.0 mm 0.00 in0.0 mm
12:53 AM 38.3°F3.5°C 40.8°F4.9°C 83% Calm Calm -- 29.61 in1002.7 mb 0.00 in0.0 mm 0.00 in0.0 mm 0.00 in0.0 mm
12:52 AM 38.3°F3.5°C 40.4°F4.7°C 83% Calm Calm -- 29.61 in1002.7 mb 0.00 in0.0 mm 0.00 in0.0 mm 0.00 in0.0 mm
12:50 AM 38.3°F3.5°C 40.7°F4.8°C 84% Calm Calm -- 29.61 in1002.7 mb 0.00 in0.0 mm 0.00 in0.0 mm 0.00 in0.0 mm
12:49 AM 38.3°F3.5°C 40.6°F4.8°C 84% Calm Calm -- 29.61 in1002.7 mb 0.00 in0.0 mm 0.00 in0.0 mm 0.00 in0.0 mm
12:47 AM 38.3°F3.5°C 40.6°F4.8°C 84% Calm Calm -- 29.61 in1002.7 mb 0.00 in0.0 mm 0.00 in0.0 mm 0.00 in0.0 mm
12:46 AM 38.3°F3.5°C 40.7°F4.8°C 84% Calm Calm -- 29.61 in1002.7 mb 0.00 in0.0 mm 0.00 in0.0 mm 0.00 in0.0 mm
12:44 AM 38.3°F3.5°C 40.5°F4.7°C 83% Calm Calm -- 29.61 in1002.7 mb 0.00 in0.0 mm 0.00 in0.0 mm 0.00 in0.0 mm
12:43 AM 38.3°F3.5°C 40.8°F4.9°C 84% Calm Calm -- 29.61 in1002.7 mb 0.00 in0.0 mm 0.00 in0.0 mm 0.00 in0.0 mm
12:41 AM 38.3°F3.5°C 40.9°F4.9°C 84% Calm Calm -- 29.61 in1002.7 mb 0.00 in0.0 mm 0.00 in0.0 mm 0.00 in0.0 mm
12:40 AM 38.3°F3.5°C 41.0°F5.0°C 84% Calm Calm -- 29.61 in1002.7 mb 0.00 in0.0 mm 0.00 in0.0 mm 0.00 in0.0 mm
12:38 AM 38.3°F3.5°C 40.7°F4.8°C 84% 0.2 mph SW0.3 kmh SW 0.3 mph0.5 kmh 29.61 in1002.7 mb 0.00 in0.0 mm 0.00 in0.0 mm 0.00 in0.0 mm
12:37 AM 38.3°F3.5°C 40.6°F4.8°C 84% 0.8 mph SW1.3 kmh SW 0.8 mph1.3 kmh 29.61 in1002.7 mb 0.00 in0.0 mm 0.00 in0.0 mm 0.00 in0.0 mm
12:35 AM 38.3°F3.5°C 40.8°F4.9°C 84% Calm Calm -- 29.61 in1002.7 mb 0.00 in0.0 mm 0.00 in0.0 mm 0.00 in0.0 mm
12:34 AM 38.3°F3.5°C 40.7°F4.8°C 83% Calm Calm -- 29.61 in1002.7 mb 0.00 in0.0 mm 0.00 in0.0 mm 0.00 in0.0 mm
12:32 AM 38.3°F3.5°C 40.8°F4.9°C 84% Calm Calm -- 29.61 in1002.7 mb 0.00 in0.0 mm 0.00 in0.0 mm 0.00 in0.0 mm
12:31 AM 38.3°F3.5°C 40.6°F4.8°C 84% Calm Calm -- 29.61 in1002.7 mb 0.00 in0.0 mm 0.00 in0.0 mm 0.00 in0.0 mm
12:29 AM 38.3°F3.5°C 40.7°F4.8°C 83% Calm Calm -- 29.61 in1002.7 mb 0.00 in0.0 mm 0.00 in0.0 mm 0.00 in0.0 mm
12:28 AM 38.3°F3.5°C 40.5°F4.7°C 83% Calm Calm -- 29.61 in1002.7 mb 0.00 in0.0 mm 0.00 in0.0 mm 0.00 in0.0 mm
12:26 AM 38.3°F3.5°C 40.7°F4.8°C 83% Calm Calm -- 29.61 in1002.7 mb 0.00 in0.0 mm 0.00 in0.0 mm 0.00 in0.0 mm
12:25 AM 38.3°F3.5°C 40.6°F4.8°C 84% Calm Calm -- 29.61 in1002.7 mb 0.00 in0.0 mm 0.00 in0.0 mm 0.00 in0.0 mm
12:23 AM 38.3°F3.5°C 40.5°F4.7°C 83% 2.2 mph SW3.5 kmh SW 2.2 mph3.5 kmh 29.61 in1002.7 mb 0.00 in0.0 mm 0.00 in0.0 mm 0.00 in0.0 mm
12:22 AM 38.3°F3.5°C 40.6°F4.8°C 84% 2.0 mph SW3.2 kmh SW 2.0 mph3.2 kmh 29.61 in1002.7 mb 0.00 in0.0 mm 0.00 in0.0 mm 0.00 in0.0 mm
12:20 AM 38.3°F3.5°C 40.7°F4.8°C 83% Calm Calm -- 29.61 in1002.7 mb 0.00 in0.0 mm 0.00 in0.0 mm 0.00 in0.0 mm
12:19 AM 38.3°F3.5°C 40.6°F4.8°C 83% Calm Calm -- 29.61 in1002.7 mb 0.00 in0.0 mm 0.00 in0.0 mm 0.00 in0.0 mm
12:17 AM 38.4°F3.6°C 40.7°F4.8°C 83% 0.2 mph WSW0.3 kmh WSW 0.3 mph0.5 kmh 29.61 in1002.7 mb 0.00 in0.0 mm 0.00 in0.0 mm 0.00 in0.0 mm
12:16 AM 38.3°F3.5°C 40.8°F4.9°C 84% Calm Calm -- 29.61 in1002.7 mb 0.00 in0.0 mm 0.00 in0.0 mm 0.00 in0.0 mm
12:14 AM 38.3°F3.5°C 40.7°F4.8°C 84% Calm Calm -- 29.61 in1002.7 mb 0.00 in0.0 mm 0.00 in0.0 mm 0.00 in0.0 mm
12:13 AM 38.3°F3.5°C 40.7°F4.8°C 83% Calm Calm -- 29.61 in1002.7 mb 0.00 in0.0 mm 0.00 in0.0 mm 0.00 in0.0 mm
12:11 AM 38.4°F3.6°C 40.8°F4.9°C 84% 0.5 mph NNW0.8 kmh NNW 0.5 mph0.8 kmh 29.61 in1002.7 mb 0.00 in0.0 mm 0.00 in0.0 mm 0.00 in0.0 mm
12:10 AM 38.3°F3.5°C 40.7°F4.8°C 83% 0.8 mph NNW1.3 kmh NNW 0.8 mph1.3 kmh 29.61 in1002.7 mb 0.00 in0.0 mm 0.00 in0.0 mm 0.00 in0.0 mm
12:08 AM 38.3°F3.5°C 40.7°F4.8°C 83% 1.6 mph SW2.6 kmh SW 1.7 mph2.7 kmh 29.61 in1002.7 mb 0.00 in0.0 mm 0.00 in0.0 mm 0.00 in0.0 mm
12:07 AM 38.3°F3.5°C 40.8°F4.9°C 84% 1.6 mph SW2.6 kmh SW 1.6 mph2.6 kmh 29.61 in1002.7 mb 0.00 in0.0 mm 0.00 in0.0 mm 0.00 in0.0 mm
12:05 AM 38.3°F3.5°C 40.6°F4.8°C 83% 1.4 mph W2.3 kmh W 1.4 mph2.3 kmh 29.61 in1002.7 mb 0.00 in0.0 mm 0.00 in0.0 mm 0.00 in0.0 mm
12:04 AM 38.3°F3.5°C 40.8°F4.9°C 84% 2.0 mph W3.2 kmh W 2.0 mph3.2 kmh 29.61 in1002.7 mb 0.00 in0.0 mm 0.00 in0.0 mm 0.00 in0.0 mm
12:02 AM 38.4°F3.6°C 40.5°F4.7°C 84% 0.3 mph NNW0.5 kmh NNW 0.3 mph0.5 kmh 29.61 in1002.7 mb 0.00 in0.0 mm 0.00 in0.0 mm 0.00 in0.0 mm
12:01 AM 38.4°F3.6°C 40.8°F4.9°C 84% 0.4 mph NNW0.6 kmh NNW 0.4 mph0.6 kmh 29.61 in1002.7 mb 0.00 in0.0 mm 0.00 in0.0 mm 0.00 in0.0 mm